Home > Products > Valid Products > TAF

000
FTUS44 KOUN 191726
TAFOKC
TAF
KOKC 191726Z 1918/2018 35008KT P6SM BKN060
     FM191900 33014KT P6SM VCTS SCT040 BKN100CB
      TEMPO 1919/1922 4SM -TSRA OVC030CB
     FM192200 33020G28KT P6SM BKN040
     FM200200 33009KT P6SM FEW200
     FM201500 34010KT P6SM BKN070=



000
FTUS44 KOUN 191726
TAFPNC
TAF
KPNC 191726Z 1918/2018 30010KT P6SM SCT060
      TEMPO 1919/1922 4SM -TSRA OVC040CB
     FM192200 33017G25KT P6SM BKN040
     FM200100 32006KT P6SM FEW120 SCT250
     FM201500 32011KT P6SM SCT120=



000
FTUS44 KOUN 191726
TAFGAG
TAF
KGAG 191726Z 1918/2018 34023G34KT P6SM SCT025 BKN040
      TEMPO 1918/1920 5SM -TSRA OVC025CB
     FM192100 34021G32KT P6SM BKN050
     FM200100 33009KT P6SM SCT120
     FM201400 35008KT P6SM BKN060=



000
FTUS44 KOUN 191726
TAFWWR
TAF
KWWR 191726Z 1918/2018 33022G33KT P6SM SCT025 BKN040
      TEMPO 1918/1920 5SM -TSRA OVC025CB
     FM192100 34022G32KT P6SM BKN050
     FM200100 33009KT P6SM SCT120
     FM201400 35008KT P6SM BKN060=



000
FTUS44 KOUN 191726
TAFHBR
TAF
KHBR 191726Z 1918/2018 33022G31KT P6SM BKN050
     FM192300 34020G28KT P6SM SCT060
     FM200200 32008KT P6SM FEW150
     FM201400 35008KT P6SM BKN060=



000
FTUS44 KOUN 191726
TAFOUN
TAF
KOUN 191726Z 1918/2018 35007KT P6SM BKN070
     FM191900 33013KT P6SM VCTS SCT040 BKN100CB
      TEMPO 1919/1922 4SM -TSRA OVC030CB
     FM192200 33020G28KT P6SM BKN050
     FM200200 33009KT P6SM FEW200
     FM201500 34010KT P6SM BKN070=



000
FTUS44 KOUN 191726
TAFSPS
TAF
KSPS 191726Z 1918/2018 33017G25KT P6SM BKN040
     FM200200 32007KT P6SM SKC
     FM201500 35008KT P6SM SCT060 BKN120=



000
FTUS44 KOUN 191726
TAFLAW
TAF
KLAW 191726Z 1918/2018 33013KT P6SM BKN040
     FM192100 34018G26KT P6SM BKN050
     FM200200 33007KT P6SM FEW150
     FM201400 34008KT P6SM BKN060=



000
FTUS44 KOUN 191726
TAFOUN
TAF
KOUN 191726Z 1918/2018 35007KT P6SM BKN070
     FM191900 33013KT P6SM VCTS SCT040 BKN100CB
      TEMPO 1919/1922 4SM -TSRA OVC030CB
     FM192200 33020G28KT P6SM BKN050
     FM200200 33009KT P6SM FEW200
     FM201500 34010KT P6SM BKN070=



000
FTUS44 KOUN 191726
TAFGAG
TAF
KGAG 191726Z 1918/2018 34023G34KT P6SM SCT025 BKN040
      TEMPO 1918/1920 5SM -TSRA OVC025CB
     FM192100 34021G32KT P6SM BKN050
     FM200100 33009KT P6SM SCT120
     FM201400 35008KT P6SM BKN060=



000
FTUS44 KOUN 191726
TAFSPS
TAF
KSPS 191726Z 1918/2018 33017G25KT P6SM BKN040
     FM200200 32007KT P6SM SKC
     FM201500 35008KT P6SM SCT060 BKN120=



000
FTUS44 KOUN 191726
TAFPNC
TAF
KPNC 191726Z 1918/2018 30010KT P6SM SCT060
      TEMPO 1919/1922 4SM -TSRA OVC040CB
     FM192200 33017G25KT P6SM BKN040
     FM200100 32006KT P6SM FEW120 SCT250
     FM201500 32011KT P6SM SCT120=



000
FTUS44 KOUN 191726
TAFHBR
TAF
KHBR 191726Z 1918/2018 33022G31KT P6SM BKN050
     FM192300 34020G28KT P6SM SCT060
     FM200200 32008KT P6SM FEW150
     FM201400 35008KT P6SM BKN060=



000
FTUS44 KOUN 191726
TAFWWR
TAF
KWWR 191726Z 1918/2018 33022G33KT P6SM SCT025 BKN040
      TEMPO 1918/1920 5SM -TSRA OVC025CB
     FM192100 34022G32KT P6SM BKN050
     FM200100 33009KT P6SM SCT120
     FM201400 35008KT P6SM BKN060=



000
FTUS44 KOUN 191726
TAFLAW
TAF
KLAW 191726Z 1918/2018 33013KT P6SM BKN040
     FM192100 34018G26KT P6SM BKN050
     FM200200 33007KT P6SM FEW150
     FM201400 34008KT P6SM BKN060=



000
FTUS44 KOUN 191726
TAFOKC
TAF
KOKC 191726Z 1918/2018 35008KT P6SM BKN060
     FM191900 33014KT P6SM VCTS SCT040 BKN100CB
      TEMPO 1919/1922 4SM -TSRA OVC030CB
     FM192200 33020G28KT P6SM BKN040
     FM200200 33009KT P6SM FEW200
     FM201500 34010KT P6SM BKN070=



000
FTUS44 KOUN 191726
TAFSPS
TAF
KSPS 191726Z 1918/2018 33017G25KT P6SM BKN040
     FM200200 32007KT P6SM SKC
     FM201500 35008KT P6SM SCT060 BKN120=



000
FTUS44 KOUN 191726
TAFPNC
TAF
KPNC 191726Z 1918/2018 30010KT P6SM SCT060
      TEMPO 1919/1922 4SM -TSRA OVC040CB
     FM192200 33017G25KT P6SM BKN040
     FM200100 32006KT P6SM FEW120 SCT250
     FM201500 32011KT P6SM SCT120=



000
FTUS44 KOUN 191726
TAFOKC
TAF
KOKC 191726Z 1918/2018 35008KT P6SM BKN060
     FM191900 33014KT P6SM VCTS SCT040 BKN100CB
      TEMPO 1919/1922 4SM -TSRA OVC030CB
     FM192200 33020G28KT P6SM BKN040
     FM200200 33009KT P6SM FEW200
     FM201500 34010KT P6SM BKN070=



000
FTUS44 KOUN 191726
TAFGAG
TAF
KGAG 191726Z 1918/2018 34023G34KT P6SM SCT025 BKN040
      TEMPO 1918/1920 5SM -TSRA OVC025CB
     FM192100 34021G32KT P6SM BKN050
     FM200100 33009KT P6SM SCT120
     FM201400 35008KT P6SM BKN060=



000
FTUS44 KOUN 191726
TAFOUN
TAF
KOUN 191726Z 1918/2018 35007KT P6SM BKN070
     FM191900 33013KT P6SM VCTS SCT040 BKN100CB
      TEMPO 1919/1922 4SM -TSRA OVC030CB
     FM192200 33020G28KT P6SM BKN050
     FM200200 33009KT P6SM FEW200
     FM201500 34010KT P6SM BKN070=



000
FTUS44 KOUN 191726
TAFLAW
TAF
KLAW 191726Z 1918/2018 33013KT P6SM BKN040
     FM192100 34018G26KT P6SM BKN050
     FM200200 33007KT P6SM FEW150
     FM201400 34008KT P6SM BKN060=



000
FTUS44 KOUN 191726
TAFHBR
TAF
KHBR 191726Z 1918/2018 33022G31KT P6SM BKN050
     FM192300 34020G28KT P6SM SCT060
     FM200200 32008KT P6SM FEW150
     FM201400 35008KT P6SM BKN060=



000
FTUS44 KOUN 191726
TAFWWR
TAF
KWWR 191726Z 1918/2018 33022G33KT P6SM SCT025 BKN040
      TEMPO 1918/1920 5SM -TSRA OVC025CB
     FM192100 34022G32KT P6SM BKN050
     FM200100 33009KT P6SM SCT120
     FM201400 35008KT P6SM BKN060=



000
FTUS44 KOUN 191141
TAFGAG
TAF
KGAG 191141Z 1912/2012 32012KT P6SM FEW120
     FM191600 33023G31KT P6SM BKN040
     FM192300 34022G30KT P6SM SCT060
     FM200130 33009KT P6SM SCT120=



000
FTUS44 KOUN 191141
TAFPNC
TAF
KPNC 191141Z 1912/2012 23005KT P6SM -RA BKN060
      TEMPO 1912/1914 5SM -TSRA BR SCT035 OVC060CB
     FM191430 15005KT P6SM BKN050
     FM191800 30010KT P6SM -TSRA BKN040CB
     FM192100 33014G23KT P6SM BKN050
     FM200100 34006KT P6SM FEW100=



000
FTUS44 KOUN 191141
TAFOKC
TAF
KOKC 191141Z 1912/2012 35006KT P6SM SCT015 BKN070
     FM191900 33013KT P6SM VCTS SCT040 BKN100CB
     FM192100 33020G28KT P6SM BKN050
     FM200200 33009KT P6SM FEW200=



000
FTUS44 KOUN 191141
TAFOUN
TAF
KOUN 191141Z 1912/2012 35006KT P6SM SCT015 BKN070
     FM191900 33013KT P6SM VCTS SCT040 BKN100CB
     FM192100 33020G28KT P6SM BKN050
     FM200200 33009KT P6SM FEW200=



000
FTUS44 KOUN 191141
TAFLAW
TAF
KLAW 191141Z 1912/2012 03007KT P6SM FEW050 BKN140
     FM191500 34013KT P6SM FEW040 SCT120
     FM191900 34018G26KT P6SM SCT070
     FM200100 33006KT P6SM SKC=



000
FTUS44 KOUN 191141
TAFSPS
TAF
KSPS 191141Z 1912/2012 03009KT P6SM SCT140
     FM191500 34019G27KT P6SM FEW070
     FM200100 33006KT P6SM SKC=



000
FTUS44 KOUN 191141
TAFWWR
TAF
KWWR 191141Z 1912/2012 32011KT P6SM SCT110
     FM191600 33023G31KT P6SM BKN040
     FM192300 34022G30KT P6SM SCT060
     FM200130 33009KT P6SM SCT120=



000
FTUS44 KOUN 191141
TAFHBR
TAF
KHBR 191141Z 1912/2012 35010KT P6SM SCT050 BKN120
     FM191500 34016G24KT P6SM SCT050
     FM191800 34023G32KT P6SM BKN050
     FM192300 34022G30KT P6SM SCT060
     FM200100 33011KT P6SM FEW150=



000
FTUS44 KOUN 191141
TAFHBR
TAF
KHBR 191141Z 1912/2012 35010KT P6SM SCT050 BKN120
     FM191500 34016G24KT P6SM SCT050
     FM191800 34023G32KT P6SM BKN050
     FM192300 34022G30KT P6SM SCT060
     FM200100 33011KT P6SM FEW150=



000
FTUS44 KOUN 191141
TAFSPS
TAF
KSPS 191141Z 1912/2012 03009KT P6SM SCT140
     FM191500 34019G27KT P6SM FEW070
     FM200100 33006KT P6SM SKC=



000
FTUS44 KOUN 191141
TAFOUN
TAF
KOUN 191141Z 1912/2012 35006KT P6SM SCT015 BKN070
     FM191900 33013KT P6SM VCTS SCT040 BKN100CB
     FM192100 33020G28KT P6SM BKN050
     FM200200 33009KT P6SM FEW200=



000
FTUS44 KOUN 191141
TAFGAG
TAF
KGAG 191141Z 1912/2012 32012KT P6SM FEW120
     FM191600 33023G31KT P6SM BKN040
     FM192300 34022G30KT P6SM SCT060
     FM200130 33009KT P6SM SCT120=



000
FTUS44 KOUN 191141
TAFSPS
TAF
KSPS 191141Z 1912/2012 03009KT P6SM SCT140
     FM191500 34019G27KT P6SM FEW070
     FM200100 33006KT P6SM SKC=



000
FTUS44 KOUN 191141
TAFWWR
TAF
KWWR 191141Z 1912/2012 32011KT P6SM SCT110
     FM191600 33023G31KT P6SM BKN040
     FM192300 34022G30KT P6SM SCT060
     FM200130 33009KT P6SM SCT120=



000
FTUS44 KOUN 191141
TAFPNC
TAF
KPNC 191141Z 1912/2012 23005KT P6SM -RA BKN060
      TEMPO 1912/1914 5SM -TSRA BR SCT035 OVC060CB
     FM191430 15005KT P6SM BKN050
     FM191800 30010KT P6SM -TSRA BKN040CB
     FM192100 33014G23KT P6SM BKN050
     FM200100 34006KT P6SM FEW100=



000
FTUS44 KOUN 191141
TAFLAW
TAF
KLAW 191141Z 1912/2012 03007KT P6SM FEW050 BKN140
     FM191500 34013KT P6SM FEW040 SCT120
     FM191900 34018G26KT P6SM SCT070
     FM200100 33006KT P6SM SKC=



000
FTUS44 KOUN 191141
TAFWWR
TAF
KWWR 191141Z 1912/2012 32011KT P6SM SCT110
     FM191600 33023G31KT P6SM BKN040
     FM192300 34022G30KT P6SM SCT060
     FM200130 33009KT P6SM SCT120=



000
FTUS44 KOUN 191141
TAFPNC
TAF
KPNC 191141Z 1912/2012 23005KT P6SM -RA BKN060
      TEMPO 1912/1914 5SM -TSRA BR SCT035 OVC060CB
     FM191430 15005KT P6SM BKN050
     FM191800 30010KT P6SM -TSRA BKN040CB
     FM192100 33014G23KT P6SM BKN050
     FM200100 34006KT P6SM FEW100=



000
FTUS44 KOUN 191141
TAFHBR
TAF
KHBR 191141Z 1912/2012 35010KT P6SM SCT050 BKN120
     FM191500 34016G24KT P6SM SCT050
     FM191800 34023G32KT P6SM BKN050
     FM192300 34022G30KT P6SM SCT060
     FM200100 33011KT P6SM FEW150=



000
FTUS44 KOUN 191141
TAFOKC
TAF
KOKC 191141Z 1912/2012 35006KT P6SM SCT015 BKN070
     FM191900 33013KT P6SM VCTS SCT040 BKN100CB
     FM192100 33020G28KT P6SM BKN050
     FM200200 33009KT P6SM FEW200=



000
FTUS44 KOUN 191141
TAFLAW
TAF
KLAW 191141Z 1912/2012 03007KT P6SM FEW050 BKN140
     FM191500 34013KT P6SM FEW040 SCT120
     FM191900 34018G26KT P6SM SCT070
     FM200100 33006KT P6SM SKC=



000
FTUS44 KOUN 191141
TAFOKC
TAF
KOKC 191141Z 1912/2012 35006KT P6SM SCT015 BKN070
     FM191900 33013KT P6SM VCTS SCT040 BKN100CB
     FM192100 33020G28KT P6SM BKN050
     FM200200 33009KT P6SM FEW200=



000
FTUS44 KOUN 191141
TAFWWR
TAF
KWWR 191141Z 1912/2012 32011KT P6SM SCT110
     FM191600 33023G31KT P6SM BKN040
     FM192300 34022G30KT P6SM SCT060
     FM200130 33009KT P6SM SCT120=



000
FTUS44 KOUN 191141
TAFOKC
TAF
KOKC 191141Z 1912/2012 35006KT P6SM SCT015 BKN070
     FM191900 33013KT P6SM VCTS SCT040 BKN100CB
     FM192100 33020G28KT P6SM BKN050
     FM200200 33009KT P6SM FEW200=



000
FTUS44 KOUN 191141
TAFPNC
TAF
KPNC 191141Z 1912/2012 23005KT P6SM -RA BKN060
      TEMPO 1912/1914 5SM -TSRA BR SCT035 OVC060CB
     FM191430 15005KT P6SM BKN050
     FM191800 30010KT P6SM -TSRA BKN040CB
     FM192100 33014G23KT P6SM BKN050
     FM200100 34006KT P6SM FEW100=



000
FTUS44 KOUN 191141
TAFOUN
TAF
KOUN 191141Z 1912/2012 35006KT P6SM SCT015 BKN070
     FM191900 33013KT P6SM VCTS SCT040 BKN100CB
     FM192100 33020G28KT P6SM BKN050
     FM200200 33009KT P6SM FEW200=



000
FTUS44 KOUN 191141
TAFLAW
TAF
KLAW 191141Z 1912/2012 03007KT P6SM FEW050 BKN140
     FM191500 34013KT P6SM FEW040 SCT120
     FM191900 34018G26KT P6SM SCT070
     FM200100 33006KT P6SM SKC=



000
FTUS44 KOUN 191141
TAFHBR
TAF
KHBR 191141Z 1912/2012 35010KT P6SM SCT050 BKN120
     FM191500 34016G24KT P6SM SCT050
     FM191800 34023G32KT P6SM BKN050
     FM192300 34022G30KT P6SM SCT060
     FM200100 33011KT P6SM FEW150=



000
FTUS44 KOUN 191141
TAFSPS
TAF
KSPS 191141Z 1912/2012 03009KT P6SM SCT140
     FM191500 34019G27KT P6SM FEW070
     FM200100 33006KT P6SM SKC=



000
FTUS44 KOUN 191141
TAFOUN
TAF
KOUN 191141Z 1912/2012 35006KT P6SM SCT015 BKN070
     FM191900 33013KT P6SM VCTS SCT040 BKN100CB
     FM192100 33020G28KT P6SM BKN050
     FM200200 33009KT P6SM FEW200=



000
FTUS44 KOUN 191141
TAFGAG
TAF
KGAG 191141Z 1912/2012 32012KT P6SM FEW120
     FM191600 33023G31KT P6SM BKN040
     FM192300 34022G30KT P6SM SCT060
     FM200130 33009KT P6SM SCT120=



000
FTUS44 KOUN 191141
TAFGAG
TAF
KGAG 191141Z 1912/2012 32012KT P6SM FEW120
     FM191600 33023G31KT P6SM BKN040
     FM192300 34022G30KT P6SM SCT060
     FM200130 33009KT P6SM SCT120=



000
FTUS44 KOUN 190520
TAFOUN
TAF
KOUN 190520Z 1906/2006 14006KT P6SM FEW100 OVC150
     FM191500 13013KT P6SM SCT035 BKN060
     FM192100 35010G19KT P6SM SCT250=



000
FTUS44 KOUN 190520
TAFOKC
TAF
KOKC 190520Z 1906/2006 16012KT P6SM FEW100 OVC200
     FM191400 13012KT P6SM SCT035 BKN060
     FM192000 35010G19KT P6SM SCT250=



000
FTUS44 KOUN 190520
TAFOUN
TAF
KOUN 190520Z 1906/2006 14006KT P6SM FEW100 OVC150
     FM191500 13013KT P6SM SCT035 BKN060
     FM192100 35010G19KT P6SM SCT250=



000
FTUS44 KOUN 190520
TAFHBR
TAF
KHBR 190520Z 1906/2006 02010KT P6SM FEW060 SCT120
     FM191300 34016G24KT P6SM SCT120 BKN200
     FM200300 34012KT P6SM SCT250=



000
FTUS44 KOUN 190520
TAFPNC
TAF
KPNC 190520Z 1906/2006 16009KT P6SM FEW035 BKN040
     FM190800 19012KT P6SM FEW050 BKN080
     FM191900 27011KT P6SM BKN025
     FM200000 34013G24KT P6SM FEW035 BKN070=



000
FTUS44 KOUN 190520
TAFOUN
TAF
KOUN 190520Z 1906/2006 14006KT P6SM FEW100 OVC150
     FM191500 13013KT P6SM SCT035 BKN060
     FM192100 35010G19KT P6SM SCT250=



000
FTUS44 KOUN 190520
TAFGAG
TAF
KGAG 190520Z 1906/2006 28010KT P6SM FEW100 SCT120
     FM191600 33017G26KT P6SM BKN040=



000
FTUS44 KOUN 190520
TAFWWR
TAF
KWWR 190520Z 1906/2006 20005KT P6SM FEW100 SCT120
     FM191500 33017G26KT P6SM BKN035=



000
FTUS44 KOUN 190520
TAFOKC
TAF
KOKC 190520Z 1906/2006 16012KT P6SM FEW100 OVC200
     FM191400 13012KT P6SM SCT035 BKN060
     FM192000 35010G19KT P6SM SCT250=



000
FTUS44 KOUN 190520
TAFOKC
TAF
KOKC 190520Z 1906/2006 16012KT P6SM FEW100 OVC200
     FM191400 13012KT P6SM SCT035 BKN060
     FM192000 35010G19KT P6SM SCT250=



000
FTUS44 KOUN 190520
TAFPNC
TAF
KPNC 190520Z 1906/2006 16009KT P6SM FEW035 BKN040
     FM190800 19012KT P6SM FEW050 BKN080
     FM191900 27011KT P6SM BKN025
     FM200000 34013G24KT P6SM FEW035 BKN070=



000
FTUS44 KOUN 190520
TAFLAW
TAF
KLAW 190520Z 1906/2006 18009KT P6SM FEW120 SCT250
     FM191500 34013KT P6SM FEW035 SCT120
     FM192200 35010G17KT P6SM FEW080 SCT120=



000
FTUS44 KOUN 190520
TAFWWR
TAF
KWWR 190520Z 1906/2006 20005KT P6SM FEW100 SCT120
     FM191500 33017G26KT P6SM BKN035=



000
FTUS44 KOUN 190520
TAFLAW
TAF
KLAW 190520Z 1906/2006 18009KT P6SM FEW120 SCT250
     FM191500 34013KT P6SM FEW035 SCT120
     FM192200 35010G17KT P6SM FEW080 SCT120=



000
FTUS44 KOUN 190520
TAFHBR
TAF
KHBR 190520Z 1906/2006 02010KT P6SM FEW060 SCT120
     FM191300 34016G24KT P6SM SCT120 BKN200
     FM200300 34012KT P6SM SCT250=



000
FTUS44 KOUN 190520
TAFSPS
TAF
KSPS 190520Z 1906/2006 16006KT P6SM FEW080
     FM191400 25010KT P6SM FEW050 SCT120
     FM191700 35014KT P6SM FEW090 SCT120=



000
FTUS44 KOUN 190520
TAFHBR
TAF
KHBR 190520Z 1906/2006 02010KT P6SM FEW060 SCT120
     FM191300 34016G24KT P6SM SCT120 BKN200
     FM200300 34012KT P6SM SCT250=



000
FTUS44 KOUN 190520
TAFGAG
TAF
KGAG 190520Z 1906/2006 28010KT P6SM FEW100 SCT120
     FM191600 33017G26KT P6SM BKN040=



000
FTUS44 KOUN 190520
TAFSPS
TAF
KSPS 190520Z 1906/2006 16006KT P6SM FEW080
     FM191400 25010KT P6SM FEW050 SCT120
     FM191700 35014KT P6SM FEW090 SCT120=



000
FTUS44 KOUN 190520
TAFGAG
TAF
KGAG 190520Z 1906/2006 28010KT P6SM FEW100 SCT120
     FM191600 33017G26KT P6SM BKN040=



000
FTUS44 KOUN 190520
TAFLAW
TAF
KLAW 190520Z 1906/2006 18009KT P6SM FEW120 SCT250
     FM191500 34013KT P6SM FEW035 SCT120
     FM192200 35010G17KT P6SM FEW080 SCT120=



000
FTUS44 KOUN 190520
TAFOKC
TAF
KOKC 190520Z 1906/2006 16012KT P6SM FEW100 OVC200
     FM191400 13012KT P6SM SCT035 BKN060
     FM192000 35010G19KT P6SM SCT250=



000
FTUS44 KOUN 190520
TAFPNC
TAF
KPNC 190520Z 1906/2006 16009KT P6SM FEW035 BKN040
     FM190800 19012KT P6SM FEW050 BKN080
     FM191900 27011KT P6SM BKN025
     FM200000 34013G24KT P6SM FEW035 BKN070=



000
FTUS44 KOUN 190520
TAFSPS
TAF
KSPS 190520Z 1906/2006 16006KT P6SM FEW080
     FM191400 25010KT P6SM FEW050 SCT120
     FM191700 35014KT P6SM FEW090 SCT120=



000
FTUS44 KOUN 190520
TAFWWR
TAF
KWWR 190520Z 1906/2006 20005KT P6SM FEW100 SCT120
     FM191500 33017G26KT P6SM BKN035=



000
FTUS44 KOUN 190520
TAFHBR
TAF
KHBR 190520Z 1906/2006 02010KT P6SM FEW060 SCT120
     FM191300 34016G24KT P6SM SCT120 BKN200
     FM200300 34012KT P6SM SCT250=



000
FTUS44 KOUN 190520
TAFWWR
TAF
KWWR 190520Z 1906/2006 20005KT P6SM FEW100 SCT120
     FM191500 33017G26KT P6SM BKN035=



000
FTUS44 KOUN 190520
TAFOUN
TAF
KOUN 190520Z 1906/2006 14006KT P6SM FEW100 OVC150
     FM191500 13013KT P6SM SCT035 BKN060
     FM192100 35010G19KT P6SM SCT250=



000
FTUS44 KOUN 190520
TAFGAG
TAF
KGAG 190520Z 1906/2006 28010KT P6SM FEW100 SCT120
     FM191600 33017G26KT P6SM BKN040=



000
FTUS44 KOUN 190520
TAFLAW
TAF
KLAW 190520Z 1906/2006 18009KT P6SM FEW120 SCT250
     FM191500 34013KT P6SM FEW035 SCT120
     FM192200 35010G17KT P6SM FEW080 SCT120=



000
FTUS44 KOUN 190520
TAFSPS
TAF
KSPS 190520Z 1906/2006 16006KT P6SM FEW080
     FM191400 25010KT P6SM FEW050 SCT120
     FM191700 35014KT P6SM FEW090 SCT120=



000
FTUS44 KOUN 190520
TAFPNC
TAF
KPNC 190520Z 1906/2006 16009KT P6SM FEW035 BKN040
     FM190800 19012KT P6SM FEW050 BKN080
     FM191900 27011KT P6SM BKN025
     FM200000 34013G24KT P6SM FEW035 BKN070=



000
FTUS44 KOUN 190419 AAB
TAFPNC
TAF AMD
KPNC 190419Z 1904/1924 33006KT P6SM -TSRA FEW035 SCT050 BKN100CB
     FM190530 14012KT P6SM FEW040 BKN080
     FM190800 18008KT P6SM FEW008 BKN025
     FM191600 27011KT P6SM BKN025=



000
FTUS44 KOUN 190419 AAB
TAFPNC
TAF AMD
KPNC 190419Z 1904/1924 33006KT P6SM -TSRA FEW035 SCT050 BKN100CB
     FM190530 14012KT P6SM FEW040 BKN080
     FM190800 18008KT P6SM FEW008 BKN025
     FM191600 27011KT P6SM BKN025=



000
FTUS44 KOUN 190419 AAB
TAFPNC
TAF AMD
KPNC 190419Z 1904/1924 33006KT P6SM -TSRA FEW035 SCT050 BKN100CB
     FM190530 14012KT P6SM FEW040 BKN080
     FM190800 18008KT P6SM FEW008 BKN025
     FM191600 27011KT P6SM BKN025=



000
FTUS44 KOUN 190134 AAA
TAFSPS
TAF AMD
KSPS 190134Z 1902/1924 14011KT P6SM FEW045 SCT080
     FM191400 25010KT P6SM SCT150
     FM191700 34013KT P6SM SCT150=



000
FTUS44 KOUN 190134 AAA
TAFSPS
TAF AMD
KSPS 190134Z 1902/1924 14011KT P6SM FEW045 SCT080
     FM191400 25010KT P6SM SCT150
     FM191700 34013KT P6SM SCT150=



000
FTUS44 KOUN 190134 AAA
TAFSPS
TAF AMD
KSPS 190134Z 1902/1924 14011KT P6SM FEW045 SCT080
     FM191400 25010KT P6SM SCT150
     FM191700 34013KT P6SM SCT150=



000
FTUS44 KOUN 190134 AAA
TAFSPS
TAF AMD
KSPS 190134Z 1902/1924 14011KT P6SM FEW045 SCT080
     FM191400 25010KT P6SM SCT150
     FM191700 34013KT P6SM SCT150=



000
FTUS44 KOUN 190133 AAA
TAFHBR
TAF AMD
KHBR 190133Z 1902/1924 16013KT P6SM FEW035 BKN100
     FM191100 35008KT P6SM SCT150 SCT250
     FM191500 34016G24KT P6SM SCT150=



000
FTUS44 KOUN 190133 AAA
TAFHBR
TAF AMD
KHBR 190133Z 1902/1924 16013KT P6SM FEW035 BKN100
     FM191100 35008KT P6SM SCT150 SCT250
     FM191500 34016G24KT P6SM SCT150=



000
FTUS44 KOUN 190133 AAA
TAFLAW
TAF AMD
KLAW 190133Z 1902/1924 15010KT P6SM FEW110
     FM191500 34013KT P6SM SCT035 SCT150=



000
FTUS44 KOUN 190133 AAA
TAFLAW
TAF AMD
KLAW 190133Z 1902/1924 15010KT P6SM FEW110
     FM191500 34013KT P6SM SCT035 SCT150=



000
FTUS44 KOUN 190131 AAA
TAFPNC
TAF AMD
KPNC 190131Z 1902/1924 13006KT P6SM FEW035 SCT050 BKN100
      TEMPO 1904/1908 5SM -TSRA SCT025 OVC040CB
     FM190800 17008KT P6SM FEW008 BKN025
     FM191600 27011KT P6SM BKN025=



000
FTUS44 KOUN 190131 AAA
TAFPNC
TAF AMD
KPNC 190131Z 1902/1924 13006KT P6SM FEW035 SCT050 BKN100
      TEMPO 1904/1908 5SM -TSRA SCT025 OVC040CB
     FM190800 17008KT P6SM FEW008 BKN025
     FM191600 27011KT P6SM BKN025=



000
FTUS44 KOUN 190128 AAA
TAFWWR
TAF AMD
KWWR 190128Z 1901/1924 10005KT P6SM VCTS FEW040 BKN090CB
     FM190200 33013KT P6SM SCT050 BKN150
     FM191500 33017G26KT P6SM BKN035=



000
FTUS44 KOUN 190128 AAA
TAFWWR
TAF AMD
KWWR 190128Z 1901/1924 10005KT P6SM VCTS FEW040 BKN090CB
     FM190200 33013KT P6SM SCT050 BKN150
     FM191500 33017G26KT P6SM BKN035=



000
FTUS44 KOUN 190128 AAA
TAFWWR
TAF AMD
KWWR 190128Z 1901/1924 10005KT P6SM VCTS FEW040 BKN090CB
     FM190200 33013KT P6SM SCT050 BKN150
     FM191500 33017G26KT P6SM BKN035=



000
FTUS44 KOUN 190128 AAA
TAFWWR
TAF AMD
KWWR 190128Z 1901/1924 10005KT P6SM VCTS FEW040 BKN090CB
     FM190200 33013KT P6SM SCT050 BKN150
     FM191500 33017G26KT P6SM BKN035=



000
FTUS44 KOUN 190127 AAA
TAFGAG
TAF AMD
KGAG 190127Z 1901/1924 34011KT P6SM SCT050 BKN120
     FM191500 33017G26KT P6SM BKN035=



000
FTUS44 KOUN 190127 AAA
TAFGAG
TAF AMD
KGAG 190127Z 1901/1924 34011KT P6SM SCT050 BKN120
     FM191500 33017G26KT P6SM BKN035=



000
FTUS44 KOUN 190126 AAB
TAFOUN
TAF AMD
KOUN 190126Z 1901/1924 16009KT P6SM FEW030 SCT060 BKN100
      TEMPO 1905/1907 5SM TSRA SCT025 OVC040CB
     FM190700 17008KT P6SM FEW030 BKN080
     FM191500 33014KT P6SM SCT025
     FM192000 35010G19KT P6SM SCT250=



000
FTUS44 KOUN 190126 AAB
TAFOUN
TAF AMD
KOUN 190126Z 1901/1924 16009KT P6SM FEW030 SCT060 BKN100
      TEMPO 1905/1907 5SM TSRA SCT025 OVC040CB
     FM190700 17008KT P6SM FEW030 BKN080
     FM191500 33014KT P6SM SCT025
     FM192000 35010G19KT P6SM SCT250=



000
FTUS44 KOUN 190125 AAA
TAFOKC
TAF AMD
KOKC 190125Z 1901/1924 17009KT P6SM FEW035 SCT070 OVC120
      TEMPO 1904/1907 3SM TSRA SCT025 OVC040CB
     FM190700 17008KT P6SM FEW035 BKN080
     FM191500 33014KT P6SM SCT025
     FM192000 35010G19KT P6SM SCT250=



000
FTUS44 KOUN 182333
TAFGAG
TAF
KGAG 182333Z 1900/1924 15010G15KT P6SM VCTS SCT030CB
      TEMPO 1901/1903 4SM TSRA BKN025CB
     FM190300 21009KT P6SM SCT050 BKN150
     FM190700 30007KT P6SM BKN100
     FM191500 33017G26KT P6SM BKN035=



000
FTUS44 KOUN 182333
TAFSPS
TAF
KSPS 182333Z 1900/1924 18014KT P6SM VCTS BKN030CB OVC080
      TEMPO 1900/1902 3SM TSRA OVC030CB
     FM190200 17009KT P6SM BKN035
     FM191400 25010KT P6SM SCT150
     FM191700 34013KT P6SM SCT150=



000
FTUS44 KOUN 182333
TAFGAG
TAF
KGAG 182333Z 1900/1924 15010G15KT P6SM VCTS SCT030CB
      TEMPO 1901/1903 4SM TSRA BKN025CB
     FM190300 21009KT P6SM SCT050 BKN150
     FM190700 30007KT P6SM BKN100
     FM191500 33017G26KT P6SM BKN035=



000
FTUS44 KOUN 182333
TAFSPS
TAF
KSPS 182333Z 1900/1924 18014KT P6SM VCTS BKN030CB OVC080
      TEMPO 1900/1902 3SM TSRA OVC030CB
     FM190200 17009KT P6SM BKN035
     FM191400 25010KT P6SM SCT150
     FM191700 34013KT P6SM SCT150=



000
FTUS44 KOUN 182333
TAFSPS
TAF
KSPS 182333Z 1900/1924 18014KT P6SM VCTS BKN030CB OVC080
      TEMPO 1900/1902 3SM TSRA OVC030CB
     FM190200 17009KT P6SM BKN035
     FM191400 25010KT P6SM SCT150
     FM191700 34013KT P6SM SCT150=



000
FTUS44 KOUN 182333
TAFPNC
TAF
KPNC 182333Z 1900/1924 13006KT P6SM VCTS BKN030CB
      TEMPO 1901/1905 4SM TSRA SCT015 OVC030CB
     FM190500 17008KT P6SM FEW008 BKN025
     FM191600 27011KT P6SM BKN025=



000
FTUS44 KOUN 182333
TAFOUN
TAF
KOUN 182333Z 1900/1924 14006KT P6SM VCTS BKN035CB
      TEMPO 1900/1904 3SM TSRA SCT015 OVC040CB
     FM190500 17008KT P6SM FEW012 BKN100
     FM191000 19007KT P6SM BKN012
     FM191500 33014KT P6SM SCT025
     FM192000 35010G19KT P6SM SCT250=



000
FTUS44 KOUN 182333
TAFOUN
TAF
KOUN 182333Z 1900/1924 14006KT P6SM VCTS BKN035CB
      TEMPO 1900/1904 3SM TSRA SCT015 OVC040CB
     FM190500 17008KT P6SM FEW012 BKN100
     FM191000 19007KT P6SM BKN012
     FM191500 33014KT P6SM SCT025
     FM192000 35010G19KT P6SM SCT250=



000
FTUS44 KOUN 182333
TAFPNC
TAF
KPNC 182333Z 1900/1924 13006KT P6SM VCTS BKN030CB
      TEMPO 1901/1905 4SM TSRA SCT015 OVC030CB
     FM190500 17008KT P6SM FEW008 BKN025
     FM191600 27011KT P6SM BKN025=



000
FTUS44 KOUN 182333
TAFWWR
TAF
KWWR 182333Z 1900/1924 15010G15KT P6SM VCTS SCT030CB
      TEMPO 1900/1902 3SM TSRA BKN025CB
     FM190300 21009KT P6SM SCT050 BKN150
     FM190800 30005KT P6SM BKN100
     FM191500 33017G26KT P6SM BKN035=



000
FTUS44 KOUN 182333
TAFHBR
TAF
KHBR 182333Z 1900/1924 21009KT P6SM SCT030 BKN080
      TEMPO 1900/1902 5SM -TSRA OVC030CB
     FM190200 14008KT P6SM SCT120 BKN250
     FM191100 35008KT P6SM SCT150 SCT250
     FM191500 34016G24KT P6SM SCT150=



000
FTUS44 KOUN 182333
TAFLAW
TAF
KLAW 182333Z 1900/1924 18007KT P6SM VCTS FEW030 BKN080CB
      TEMPO 1900/1902 3SM TSRA OVC030CB
     FM190200 14006KT P6SM BKN035
     FM191500 34013KT P6SM SCT035 SCT150=



000
FTUS44 KOUN 182333
TAFOKC
TAF
KOKC 182333Z 1900/1924 14006KT P6SM VCTS BKN035CB
      TEMPO 1900/1904 3SM TSRA SCT015 OVC040CB
     FM190500 17008KT P6SM FEW012 BKN100
     FM191000 19007KT P6SM BKN012
     FM191500 33014KT P6SM SCT025
     FM192000 35010G19KT P6SM SCT250=



000
FTUS44 KOUN 182333
TAFWWR
TAF
KWWR 182333Z 1900/1924 15010G15KT P6SM VCTS SCT030CB
      TEMPO 1900/1902 3SM TSRA BKN025CB
     FM190300 21009KT P6SM SCT050 BKN150
     FM190800 30005KT P6SM BKN100
     FM191500 33017G26KT P6SM BKN035=



000
FTUS44 KOUN 182333
TAFLAW
TAF
KLAW 182333Z 1900/1924 18007KT P6SM VCTS FEW030 BKN080CB
      TEMPO 1900/1902 3SM TSRA OVC030CB
     FM190200 14006KT P6SM BKN035
     FM191500 34013KT P6SM SCT035 SCT150=



000
FTUS44 KOUN 182333
TAFLAW
TAF
KLAW 182333Z 1900/1924 18007KT P6SM VCTS FEW030 BKN080CB
      TEMPO 1900/1902 3SM TSRA OVC030CB
     FM190200 14006KT P6SM BKN035
     FM191500 34013KT P6SM SCT035 SCT150=



000
FTUS44 KOUN 182333
TAFLAW
TAF
KLAW 182333Z 1900/1924 18007KT P6SM VCTS FEW030 BKN080CB
      TEMPO 1900/1902 3SM TSRA OVC030CB
     FM190200 14006KT P6SM BKN035
     FM191500 34013KT P6SM SCT035 SCT150=



000
FTUS44 KOUN 182333
TAFOKC
TAF
KOKC 182333Z 1900/1924 14006KT P6SM VCTS BKN035CB
      TEMPO 1900/1904 3SM TSRA SCT015 OVC040CB
     FM190500 17008KT P6SM FEW012 BKN100
     FM191000 19007KT P6SM BKN012
     FM191500 33014KT P6SM SCT025
     FM192000 35010G19KT P6SM SCT250=



000
FTUS44 KOUN 182333
TAFHBR
TAF
KHBR 182333Z 1900/1924 21009KT P6SM SCT030 BKN080
      TEMPO 1900/1902 5SM -TSRA OVC030CB
     FM190200 14008KT P6SM SCT120 BKN250
     FM191100 35008KT P6SM SCT150 SCT250
     FM191500 34016G24KT P6SM SCT150=



000
FTUS44 KOUN 182333
TAFGAG
TAF
KGAG 182333Z 1900/1924 15010G15KT P6SM VCTS SCT030CB
      TEMPO 1901/1903 4SM TSRA BKN025CB
     FM190300 21009KT P6SM SCT050 BKN150
     FM190700 30007KT P6SM BKN100
     FM191500 33017G26KT P6SM BKN035=



000
FTUS44 KOUN 182333
TAFGAG
TAF
KGAG 182333Z 1900/1924 15010G15KT P6SM VCTS SCT030CB
      TEMPO 1901/1903 4SM TSRA BKN025CB
     FM190300 21009KT P6SM SCT050 BKN150
     FM190700 30007KT P6SM BKN100
     FM191500 33017G26KT P6SM BKN035=



000
FTUS44 KOUN 182333
TAFSPS
TAF
KSPS 182333Z 1900/1924 18014KT P6SM VCTS BKN030CB OVC080
      TEMPO 1900/1902 3SM TSRA OVC030CB
     FM190200 17009KT P6SM BKN035
     FM191400 25010KT P6SM SCT150
     FM191700 34013KT P6SM SCT150=



000
FTUS44 KOUN 182333
TAFPNC
TAF
KPNC 182333Z 1900/1924 13006KT P6SM VCTS BKN030CB
      TEMPO 1901/1905 4SM TSRA SCT015 OVC030CB
     FM190500 17008KT P6SM FEW008 BKN025
     FM191600 27011KT P6SM BKN025=



000
FTUS44 KOUN 182333
TAFHBR
TAF
KHBR 182333Z 1900/1924 21009KT P6SM SCT030 BKN080
      TEMPO 1900/1902 5SM -TSRA OVC030CB
     FM190200 14008KT P6SM SCT120 BKN250
     FM191100 35008KT P6SM SCT150 SCT250
     FM191500 34016G24KT P6SM SCT150=



000
FTUS44 KOUN 182333
TAFWWR
TAF
KWWR 182333Z 1900/1924 15010G15KT P6SM VCTS SCT030CB
      TEMPO 1900/1902 3SM TSRA BKN025CB
     FM190300 21009KT P6SM SCT050 BKN150
     FM190800 30005KT P6SM BKN100
     FM191500 33017G26KT P6SM BKN035=



000
FTUS44 KOUN 182333
TAFOKC
TAF
KOKC 182333Z 1900/1924 14006KT P6SM VCTS BKN035CB
      TEMPO 1900/1904 3SM TSRA SCT015 OVC040CB
     FM190500 17008KT P6SM FEW012 BKN100
     FM191000 19007KT P6SM BKN012
     FM191500 33014KT P6SM SCT025
     FM192000 35010G19KT P6SM SCT250=



000
FTUS44 KOUN 182333
TAFPNC
TAF
KPNC 182333Z 1900/1924 13006KT P6SM VCTS BKN030CB
      TEMPO 1901/1905 4SM TSRA SCT015 OVC030CB
     FM190500 17008KT P6SM FEW008 BKN025
     FM191600 27011KT P6SM BKN025=



000
FTUS44 KOUN 182333
TAFWWR
TAF
KWWR 182333Z 1900/1924 15010G15KT P6SM VCTS SCT030CB
      TEMPO 1900/1902 3SM TSRA BKN025CB
     FM190300 21009KT P6SM SCT050 BKN150
     FM190800 30005KT P6SM BKN100
     FM191500 33017G26KT P6SM BKN035=



000
FTUS44 KOUN 182333
TAFHBR
TAF
KHBR 182333Z 1900/1924 21009KT P6SM SCT030 BKN080
      TEMPO 1900/1902 5SM -TSRA OVC030CB
     FM190200 14008KT P6SM SCT120 BKN250
     FM191100 35008KT P6SM SCT150 SCT250
     FM191500 34016G24KT P6SM SCT150=



000
FTUS44 KOUN 182333
TAFOKC
TAF
KOKC 182333Z 1900/1924 14006KT P6SM VCTS BKN035CB
      TEMPO 1900/1904 3SM TSRA SCT015 OVC040CB
     FM190500 17008KT P6SM FEW012 BKN100
     FM191000 19007KT P6SM BKN012
     FM191500 33014KT P6SM SCT025
     FM192000 35010G19KT P6SM SCT250=



000
FTUS44 KOUN 182333
TAFOUN
TAF
KOUN 182333Z 1900/1924 14006KT P6SM VCTS BKN035CB
      TEMPO 1900/1904 3SM TSRA SCT015 OVC040CB
     FM190500 17008KT P6SM FEW012 BKN100
     FM191000 19007KT P6SM BKN012
     FM191500 33014KT P6SM SCT025
     FM192000 35010G19KT P6SM SCT250=



000
FTUS44 KOUN 182333
TAFOUN
TAF
KOUN 182333Z 1900/1924 14006KT P6SM VCTS BKN035CB
      TEMPO 1900/1904 3SM TSRA SCT015 OVC040CB
     FM190500 17008KT P6SM FEW012 BKN100
     FM191000 19007KT P6SM BKN012
     FM191500 33014KT P6SM SCT025
     FM192000 35010G19KT P6SM SCT250=



000
FTUS44 KOUN 182244 AAC
TAFGAG
TAF AMD
KGAG 182244Z 1823/1918 16008KT P6SM -RA VCTS FEW070 SCT110CB
      TEMPO 1823/1901 3SM TSRA BKN025CB
     FM190100 18009KT P6SM SCT050 BKN150
     FM190700 30007KT P6SM BKN100
     FM191500 33017G26KT P6SM BKN035=



000
FTUS44 KOUN 182239 AAA
TAFLAW
TAF AMD
KLAW 182239Z 1823/1918 18007KT P6SM VCTS FEW025 BKN040CB
      TEMPO 1823/1902 5SM TSRA OVC030CB
     FM190200 14006KT P6SM BKN035
     FM191500 34013KT P6SM SCT035 SCT150=



000
FTUS44 KOUN 182239 AAA
TAFLAW
TAF AMD
KLAW 182239Z 1823/1918 18007KT P6SM VCTS FEW025 BKN040CB
      TEMPO 1823/1902 5SM TSRA OVC030CB
     FM190200 14006KT P6SM BKN035
     FM191500 34013KT P6SM SCT035 SCT150=



000
FTUS44 KOUN 182239 AAA
TAFLAW
TAF AMD
KLAW 182239Z 1823/1918 18007KT P6SM VCTS FEW025 BKN040CB
      TEMPO 1823/1902 5SM TSRA OVC030CB
     FM190200 14006KT P6SM BKN035
     FM191500 34013KT P6SM SCT035 SCT150=



000
FTUS44 KOUN 182119 AAB
TAFGAG
TAF AMD
KGAG 182119Z 1821/1918 15010G15KT P6SM VCTS SCT030CB
      TEMPO 1821/1901 3SM TSRA BKN025CB
     FM190100 16009KT P6SM VCTS SCT050 BKN150CB
     FM190200 19006KT P6SM BKN100
     FM190700 30007KT P6SM BKN100
     FM191500 33017G26KT P6SM BKN035=



000
FTUS44 KOUN 182119 AAB
TAFGAG
TAF AMD
KGAG 182119Z 1821/1918 15010G15KT P6SM VCTS SCT030CB
      TEMPO 1821/1901 3SM TSRA BKN025CB
     FM190100 16009KT P6SM VCTS SCT050 BKN150CB
     FM190200 19006KT P6SM BKN100
     FM190700 30007KT P6SM BKN100
     FM191500 33017G26KT P6SM BKN035=



000
FTUS44 KOUN 182011 AAA
TAFGAG
TAF AMD
KGAG 182011Z 1820/1918 15010G15KT P6SM VCTS SCT030CB
      TEMPO 1820/1824 3SM TSRA BKN025CB
     FM190000 16009KT P6SM SCT050 BKN150
      TEMPO 1900/1902 3SM TSRA SCT025 OVC040CB
     FM190500 30005KT P6SM BKN100
     FM191500 33017G26KT P6SM BKN035=



000
FTUS44 KOUN 182011 AAA
TAFWWR
TAF AMD
KWWR 182011Z 1820/1918 15010G15KT P6SM VCTS SCT030CB
      TEMPO 1820/1824 3SM TSRA BKN025CB
     FM190000 16009KT P6SM SCT050 BKN150
      TEMPO 1900/1902 3SM TSRA SCT025 OVC040CB
     FM190500 30005KT P6SM BKN100
     FM191500 33017G26KT P6SM BKN035=



000
FTUS44 KOUN 182011 AAA
TAFGAG
TAF AMD
KGAG 182011Z 1820/1918 15010G15KT P6SM VCTS SCT030CB
      TEMPO 1820/1824 3SM TSRA BKN025CB
     FM190000 16009KT P6SM SCT050 BKN150
      TEMPO 1900/1902 3SM TSRA SCT025 OVC040CB
     FM190500 30005KT P6SM BKN100
     FM191500 33017G26KT P6SM BKN035=



000
FTUS44 KOUN 182011 AAA
TAFWWR
TAF AMD
KWWR 182011Z 1820/1918 15010G15KT P6SM VCTS SCT030CB
      TEMPO 1820/1824 3SM TSRA BKN025CB
     FM190000 16009KT P6SM SCT050 BKN150
      TEMPO 1900/1902 3SM TSRA SCT025 OVC040CB
     FM190500 30005KT P6SM BKN100
     FM191500 33017G26KT P6SM BKN035=



000
FTUS44 KOUN 182011 AAA
TAFWWR
TAF AMD
KWWR 182011Z 1820/1918 15010G15KT P6SM VCTS SCT030CB
      TEMPO 1820/1824 3SM TSRA BKN025CB
     FM190000 16009KT P6SM SCT050 BKN150
      TEMPO 1900/1902 3SM TSRA SCT025 OVC040CB
     FM190500 30005KT P6SM BKN100
     FM191500 33017G26KT P6SM BKN035=



000
FTUS44 KOUN 182011 AAA
TAFGAG
TAF AMD
KGAG 182011Z 1820/1918 15010G15KT P6SM VCTS SCT030CB
      TEMPO 1820/1824 3SM TSRA BKN025CB
     FM190000 16009KT P6SM SCT050 BKN150
      TEMPO 1900/1902 3SM TSRA SCT025 OVC040CB
     FM190500 30005KT P6SM BKN100
     FM191500 33017G26KT P6SM BKN035=



000
FTUS44 KOUN 181727
TAFOUN
TAF
KOUN 181727Z 1818/1918 14006KT P6SM BKN035
     FM182200 17010KT P6SM BKN050 BKN200
      TEMPO 1900/1903 3SM TSRA SCT015 OVC040CB
     FM190400 16008KT P6SM FEW012 BKN100
     FM191100 19007KT P6SM BKN012
     FM191500 33014KT P6SM SCT025=



000
FTUS44 KOUN 181727
TAFWWR
TAF
KWWR 181727Z 1818/1918 20008KT P6SM BKN018
     FM182000 18011KT P6SM SCT035
     FM182200 16009KT P6SM SCT050 BKN150
      TEMPO 1823/1902 3SM TSRA SCT025 OVC040CB
     FM190500 30005KT P6SM BKN100
     FM191500 33017G26KT P6SM BKN035=



000
FTUS44 KOUN 181727
TAFLAW
TAF
KLAW 181727Z 1818/1918 18007KT P6SM BKN010
     FM181900 19011KT P6SM SCT012 BKN025
     FM182100 16011KT P6SM BKN040
      TEMPO 1823/1902 3SM TSRA OVC030CB
     FM190200 14006KT P6SM BKN035
     FM191500 34013KT P6SM SCT035 SCT150=



000
FTUS44 KOUN 181727
TAFOKC
TAF
KOKC 181727Z 1818/1918 14006KT P6SM BKN035
     FM182200 17010KT P6SM BKN050 BKN300
      TEMPO 1900/1903 3SM TSRA SCT015 OVC040CB
     FM190400 16008KT P6SM FEW012 BKN100
     FM191100 19007KT P6SM BKN012
     FM191500 33014KT P6SM SCT025=



000
FTUS44 KOUN 181727
TAFPNC
TAF
KPNC 181727Z 1818/1918 13006KT P6SM BKN035
     FM182100 15012KT P6SM BKN040 BKN100
      TEMPO 1902/1905 3SM TSRA SCT015 OVC030CB
     FM190500 14008KT P6SM FEW008 BKN025
     FM191600 27011KT P6SM BKN025=



000
FTUS44 KOUN 181727
TAFSPS
TAF
KSPS 181727Z 1818/1918 18012KT P6SM BKN030
     FM182000 17012KT P6SM BKN040
      TEMPO 1822/1902 3SM TSRA OVC030CB
     FM190300 15006KT P6SM BKN035
     FM190700 15007KT P6SM SCT035 SCT150
     FM191400 25010KT P6SM SCT150
     FM191700 34013KT P6SM SCT150=



000
FTUS44 KOUN 181727
TAFGAG
TAF
KGAG 181727Z 1818/1918 20008KT P6SM BKN025
     FM182000 18011KT P6SM SCT035
     FM182200 16009KT P6SM SCT050 BKN150
      TEMPO 1823/1902 3SM TSRA SCT025 OVC040CB
     FM190500 30005KT P6SM BKN100
     FM191500 33017G26KT P6SM BKN035=



000
FTUS44 KOUN 181727
TAFHBR
TAF
KHBR 181727Z 1818/1918 21008KT P6SM BKN020
     FM181900 18012KT P6SM BKN035
     FM182100 16012KT P6SM BKN040
      TEMPO 1822/1901 3SM TSRA OVC030CB
     FM190300 14008KT P6SM SCT120 BKN250
     FM190900 35008KT P6SM SCT150 SCT250
     FM191500 34015G24KT P6SM SCT150=



000
FTUS44 KOUN 181727
TAFLAW
TAF
KLAW 181727Z 1818/1918 18007KT P6SM BKN010
     FM181900 19011KT P6SM SCT012 BKN025
     FM182100 16011KT P6SM BKN040
      TEMPO 1823/1902 3SM TSRA OVC030CB
     FM190200 14006KT P6SM BKN035
     FM191500 34013KT P6SM SCT035 SCT150=



000
FTUS44 KOUN 181727
TAFPNC
TAF
KPNC 181727Z 1818/1918 13006KT P6SM BKN035
     FM182100 15012KT P6SM BKN040 BKN100
      TEMPO 1902/1905 3SM TSRA SCT015 OVC030CB
     FM190500 14008KT P6SM FEW008 BKN025
     FM191600 27011KT P6SM BKN025=



000
FTUS44 KOUN 181727
TAFSPS
TAF
KSPS 181727Z 1818/1918 18012KT P6SM BKN030
     FM182000 17012KT P6SM BKN040
      TEMPO 1822/1902 3SM TSRA OVC030CB
     FM190300 15006KT P6SM BKN035
     FM190700 15007KT P6SM SCT035 SCT150
     FM191400 25010KT P6SM SCT150
     FM191700 34013KT P6SM SCT150=



000
FTUS44 KOUN 181727
TAFOUN
TAF
KOUN 181727Z 1818/1918 14006KT P6SM BKN035
     FM182200 17010KT P6SM BKN050 BKN200
      TEMPO 1900/1903 3SM TSRA SCT015 OVC040CB
     FM190400 16008KT P6SM FEW012 BKN100
     FM191100 19007KT P6SM BKN012
     FM191500 33014KT P6SM SCT025=



000
FTUS44 KOUN 181727
TAFWWR
TAF
KWWR 181727Z 1818/1918 20008KT P6SM BKN018
     FM182000 18011KT P6SM SCT035
     FM182200 16009KT P6SM SCT050 BKN150
      TEMPO 1823/1902 3SM TSRA SCT025 OVC040CB
     FM190500 30005KT P6SM BKN100
     FM191500 33017G26KT P6SM BKN035=



000
FTUS44 KOUN 181727
TAFGAG
TAF
KGAG 181727Z 1818/1918 20008KT P6SM BKN025
     FM182000 18011KT P6SM SCT035
     FM182200 16009KT P6SM SCT050 BKN150
      TEMPO 1823/1902 3SM TSRA SCT025 OVC040CB
     FM190500 30005KT P6SM BKN100
     FM191500 33017G26KT P6SM BKN035=



000
FTUS44 KOUN 181727
TAFHBR
TAF
KHBR 181727Z 1818/1918 21008KT P6SM BKN020
     FM181900 18012KT P6SM BKN035
     FM182100 16012KT P6SM BKN040
      TEMPO 1822/1901 3SM TSRA OVC030CB
     FM190300 14008KT P6SM SCT120 BKN250
     FM190900 35008KT P6SM SCT150 SCT250
     FM191500 34015G24KT P6SM SCT150=



000
FTUS44 KOUN 181727
TAFOKC
TAF
KOKC 181727Z 1818/1918 14006KT P6SM BKN035
     FM182200 17010KT P6SM BKN050 BKN300
      TEMPO 1900/1903 3SM TSRA SCT015 OVC040CB
     FM190400 16008KT P6SM FEW012 BKN100
     FM191100 19007KT P6SM BKN012
     FM191500 33014KT P6SM SCT025=



000
FTUS44 KOUN 181425 AAA
TAFOKC
TAF AMD
KOKC 181425Z 1814/1912 12006KT P6SM BKN035
      TEMPO 1814/1818 OVC025
     FM182300 14007KT P6SM VCTS SCT050CB BKN200
      TEMPO 1900/1902 27015G30KT 3SM TSRA SCT015 OVC040CB
     FM190400 14008KT P6SM FEW008 BKN100=



000
FTUS44 KOUN 181425 AAA
TAFOKC
TAF AMD
KOKC 181425Z 1814/1912 12006KT P6SM BKN035
      TEMPO 1814/1818 OVC025
     FM182300 14007KT P6SM VCTS SCT050CB BKN200
      TEMPO 1900/1902 27015G30KT 3SM TSRA SCT015 OVC040CB
     FM190400 14008KT P6SM FEW008 BKN100=



000
FTUS44 KOUN 181425 AAA
TAFOKC
TAF AMD
KOKC 181425Z 1814/1912 12006KT P6SM BKN035
      TEMPO 1814/1818 OVC025
     FM182300 14007KT P6SM VCTS SCT050CB BKN200
      TEMPO 1900/1902 27015G30KT 3SM TSRA SCT015 OVC040CB
     FM190400 14008KT P6SM FEW008 BKN100=



000
FTUS44 KOUN 181425 AAA
TAFOKC
TAF AMD
KOKC 181425Z 1814/1912 12006KT P6SM BKN035
      TEMPO 1814/1818 OVC025
     FM182300 14007KT P6SM VCTS SCT050CB BKN200
      TEMPO 1900/1902 27015G30KT 3SM TSRA SCT015 OVC040CB
     FM190400 14008KT P6SM FEW008 BKN100=



000
FTUS44 KOUN 181424 AAB
TAFOUN
TAF AMD
KOUN 181424Z 1814/1912 12006KT P6SM BKN035
      TEMPO 1814/1818 OVC025
     FM182300 14007KT P6SM VCTS SCT050CB BKN200
      TEMPO 1900/1902 27015G30KT 3SM TSRA SCT015 OVC040CB
     FM190400 14008KT P6SM FEW008 BKN100=



000
FTUS44 KOUN 181424 AAB
TAFOUN
TAF AMD
KOUN 181424Z 1814/1912 12006KT P6SM BKN035
      TEMPO 1814/1818 OVC025
     FM182300 14007KT P6SM VCTS SCT050CB BKN200
      TEMPO 1900/1902 27015G30KT 3SM TSRA SCT015 OVC040CB
     FM190400 14008KT P6SM FEW008 BKN100=



000
FTUS44 KOUN 181424 AAB
TAFOUN
TAF AMD
KOUN 181424Z 1814/1912 12006KT P6SM BKN035
      TEMPO 1814/1818 OVC025
     FM182300 14007KT P6SM VCTS SCT050CB BKN200
      TEMPO 1900/1902 27015G30KT 3SM TSRA SCT015 OVC040CB
     FM190400 14008KT P6SM FEW008 BKN100=



000
FTUS44 KOUN 181424 AAB
TAFOUN
TAF AMD
KOUN 181424Z 1814/1912 12006KT P6SM BKN035
      TEMPO 1814/1818 OVC025
     FM182300 14007KT P6SM VCTS SCT050CB BKN200
      TEMPO 1900/1902 27015G30KT 3SM TSRA SCT015 OVC040CB
     FM190400 14008KT P6SM FEW008 BKN100=



000
FTUS44 KOUN 181403 AAA
TAFSPS
TAF AMD
KSPS 181403Z 1814/1912 19010KT 5SM BR BKN015
      TEMPO 1814/1816 OVC004
     FM181800 18010KT P6SM BKN035
     FM182100 17010KT P6SM VCTS SCT050CB BKN200
     FM190100 13006KT P6SM FEW008 BKN100=



000
FTUS44 KOUN 181403 AAA
TAFSPS
TAF AMD
KSPS 181403Z 1814/1912 19010KT 5SM BR BKN015
      TEMPO 1814/1816 OVC004
     FM181800 18010KT P6SM BKN035
     FM182100 17010KT P6SM VCTS SCT050CB BKN200
     FM190100 13006KT P6SM FEW008 BKN100=



000
FTUS44 KOUN 181403 AAA
TAFSPS
TAF AMD
KSPS 181403Z 1814/1912 19010KT 5SM BR BKN015
      TEMPO 1814/1816 OVC004
     FM181800 18010KT P6SM BKN035
     FM182100 17010KT P6SM VCTS SCT050CB BKN200
     FM190100 13006KT P6SM FEW008 BKN100=



000
FTUS44 KOUN 181403 AAA
TAFSPS
TAF AMD
KSPS 181403Z 1814/1912 19010KT 5SM BR BKN015
      TEMPO 1814/1816 OVC004
     FM181800 18010KT P6SM BKN035
     FM182100 17010KT P6SM VCTS SCT050CB BKN200
     FM190100 13006KT P6SM FEW008 BKN100=



000
FTUS44 KOUN 181402 AAA
TAFLAW
TAF AMD
KLAW 181402Z 1814/1912 19010KT P6SM SCT005 BKN020
      TEMPO 1814/1816 OVC007
     FM182200 14007KT P6SM VCTS SCT050CB BKN200
     FM190200 13006KT P6SM FEW008 BKN100=



000
FTUS44 KOUN 181402 AAA
TAFLAW
TAF AMD
KLAW 181402Z 1814/1912 19010KT P6SM SCT005 BKN020
      TEMPO 1814/1816 OVC007
     FM182200 14007KT P6SM VCTS SCT050CB BKN200
     FM190200 13006KT P6SM FEW008 BKN100=



000
FTUS44 KOUN 181402 AAA
TAFLAW
TAF AMD
KLAW 181402Z 1814/1912 19010KT P6SM SCT005 BKN020
      TEMPO 1814/1816 OVC007
     FM182200 14007KT P6SM VCTS SCT050CB BKN200
     FM190200 13006KT P6SM FEW008 BKN100=



000
FTUS44 KOUN 181402 AAA
TAFLAW
TAF AMD
KLAW 181402Z 1814/1912 19010KT P6SM SCT005 BKN020
      TEMPO 1814/1816 OVC007
     FM182200 14007KT P6SM VCTS SCT050CB BKN200
     FM190200 13006KT P6SM FEW008 BKN100=



000
FTUS44 KOUN 181357 AAA
TAFHBR
TAF AMD
KHBR 181357Z 1814/1912 18009KT 2SM BR BKN015
      TEMPO 1814/1816 OVC004
     FM181800 18010KT P6SM BKN025
     FM181900 18010KT P6SM BKN035
     FM182100 17010KT P6SM SCT040
     FM190000 14008KT P6SM SCT250=



000
FTUS44 KOUN 181357 AAA
TAFHBR
TAF AMD
KHBR 181357Z 1814/1912 18009KT 2SM BR BKN015
      TEMPO 1814/1816 OVC004
     FM181800 18010KT P6SM BKN025
     FM181900 18010KT P6SM BKN035
     FM182100 17010KT P6SM SCT040
     FM190000 14008KT P6SM SCT250=



000
FTUS44 KOUN 181138
TAFGAG
TAF
KGAG 181138Z 1812/1912 16006KT P6SM SCT007 BKN017
     FM181700 17010KT P6SM SCT035
     FM182200 16009KT P6SM VCTS SCT050CB BKN150
     FM190200 30005KT P6SM SCT100=



000
FTUS44 KOUN 181138
TAFOKC
TAF
KOKC 181138Z 1812/1912 15006KT P6SM FEW035 BKN090
     FM182300 14007KT P6SM VCTS SCT050CB BKN200
      TEMPO 1900/1902 27015G30KT 3SM TSRA SCT015 OVC040CB
     FM190400 14008KT P6SM FEW008 BKN100=



000
FTUS44 KOUN 181138
TAFWWR
TAF
KWWR 181138Z 1812/1912 17006KT P6SM SCT007 BKN017
     FM181700 17010KT P6SM SCT035
     FM182200 16009KT P6SM VCTS SCT050CB BKN150
     FM190200 30005KT P6SM SCT100=



000
FTUS44 KOUN 181138
TAFPNC
TAF
KPNC 181138Z 1812/1912 17005KT P6SM VCSH BKN100
     FM181400 15006KT P6SM FEW025 SCT100
     FM181900 13008KT P6SM VCTS SCT035CB BKN100
      TEMPO 1901/1903 27015G30KT 3SM TSRA SCT015 OVC040CB
     FM190400 14008KT P6SM FEW008 BKN100=



000
FTUS44 KOUN 181138
TAFOUN
TAF
KOUN 181138Z 1812/1912 15006KT P6SM FEW035 BKN090
     FM182300 14007KT P6SM VCTS SCT050CB BKN200
      TEMPO 1900/1902 27015G30KT 3SM TSRA SCT015 OVC040CB
     FM190400 14008KT P6SM FEW008 BKN100=



000
FTUS44 KOUN 181138
TAFLAW
TAF
KLAW 181138Z 1812/1912 16005KT P6SM SCT015 BKN045
     FM182200 14007KT P6SM VCTS SCT050CB BKN200
     FM190200 13006KT P6SM FEW008 BKN100=



000
FTUS44 KOUN 181138
TAFSPS
TAF
KSPS 181138Z 1812/1912 18007KT P6SM BKN015
     FM181700 17010KT P6SM BKN025
     FM181800 18010KT P6SM BKN035
     FM182100 17010KT P6SM VCTS SCT050CB BKN200
     FM190100 13006KT P6SM FEW008 BKN100=



000
FTUS44 KOUN 181138
TAFHBR
TAF
KHBR 181138Z 1812/1912 18009KT 2SM BR FEW001 BKN017
     FM181800 18010KT P6SM BKN025
     FM181900 18010KT P6SM BKN035
     FM182100 17010KT P6SM SCT040
     FM190000 14008KT P6SM SCT250=



000
FTUS44 KOUN 181138
TAFOUN
TAF
KOUN 181138Z 1812/1912 15006KT P6SM FEW035 BKN090
     FM182300 14007KT P6SM VCTS SCT050CB BKN200
      TEMPO 1900/1902 27015G30KT 3SM TSRA SCT015 OVC040CB
     FM190400 14008KT P6SM FEW008 BKN100=



000
FTUS44 KOUN 181138
TAFLAW
TAF
KLAW 181138Z 1812/1912 16005KT P6SM SCT015 BKN045
     FM182200 14007KT P6SM VCTS SCT050CB BKN200
     FM190200 13006KT P6SM FEW008 BKN100=



000
FTUS44 KOUN 181138
TAFGAG
TAF
KGAG 181138Z 1812/1912 16006KT P6SM SCT007 BKN017
     FM181700 17010KT P6SM SCT035
     FM182200 16009KT P6SM VCTS SCT050CB BKN150
     FM190200 30005KT P6SM SCT100=



000
FTUS44 KOUN 181138
TAFSPS
TAF
KSPS 181138Z 1812/1912 18007KT P6SM BKN015
     FM181700 17010KT P6SM BKN025
     FM181800 18010KT P6SM BKN035
     FM182100 17010KT P6SM VCTS SCT050CB BKN200
     FM190100 13006KT P6SM FEW008 BKN100=



000
FTUS44 KOUN 181138
TAFOKC
TAF
KOKC 181138Z 1812/1912 15006KT P6SM FEW035 BKN090
     FM182300 14007KT P6SM VCTS SCT050CB BKN200
      TEMPO 1900/1902 27015G30KT 3SM TSRA SCT015 OVC040CB
     FM190400 14008KT P6SM FEW008 BKN100=



000
FTUS44 KOUN 181138
TAFPNC
TAF
KPNC 181138Z 1812/1912 17005KT P6SM VCSH BKN100
     FM181400 15006KT P6SM FEW025 SCT100
     FM181900 13008KT P6SM VCTS SCT035CB BKN100
      TEMPO 1901/1903 27015G30KT 3SM TSRA SCT015 OVC040CB
     FM190400 14008KT P6SM FEW008 BKN100=



000
FTUS44 KOUN 181138
TAFWWR
TAF
KWWR 181138Z 1812/1912 17006KT P6SM SCT007 BKN017
     FM181700 17010KT P6SM SCT035
     FM182200 16009KT P6SM VCTS SCT050CB BKN150
     FM190200 30005KT P6SM SCT100=



000
FTUS44 KOUN 181138
TAFHBR
TAF
KHBR 181138Z 1812/1912 18009KT 2SM BR FEW001 BKN017
     FM181800 18010KT P6SM BKN025
     FM181900 18010KT P6SM BKN035
     FM182100 17010KT P6SM SCT040
     FM190000 14008KT P6SM SCT250=



000
FTUS44 KOUN 180937 AAB
TAFOUN
TAF AMD
KOUN 180937Z 1810/1906 15006KT P6SM BKN100
     FM181800 16012KT P6SM OVC025 PROB30 1821/1824 2SM TSRA OVC015CB
     FM190000 13009KT P6SM OVC025
      TEMPO 1900/1903 P6SM -TSRA BKN015CB
     FM190300 17009KT P6SM OVC025
      TEMPO 1903/1906 P6SM -TSRA BKN025CB=



000
FTUS44 KOUN 180937 AAB
TAFOUN
TAF AMD
KOUN 180937Z 1810/1906 15006KT P6SM BKN100
     FM181800 16012KT P6SM OVC025 PROB30 1821/1824 2SM TSRA OVC015CB
     FM190000 13009KT P6SM OVC025
      TEMPO 1900/1903 P6SM -TSRA BKN015CB
     FM190300 17009KT P6SM OVC025
      TEMPO 1903/1906 P6SM -TSRA BKN025CB=



000
FTUS44 KOUN 180937 AAB
TAFOUN
TAF AMD
KOUN 180937Z 1810/1906 15006KT P6SM BKN100
     FM181800 16012KT P6SM OVC025 PROB30 1821/1824 2SM TSRA OVC015CB
     FM190000 13009KT P6SM OVC025
      TEMPO 1900/1903 P6SM -TSRA BKN015CB
     FM190300 17009KT P6SM OVC025
      TEMPO 1903/1906 P6SM -TSRA BKN025CB=



000
FTUS44 KOUN 180937 AAB
TAFOUN
TAF AMD
KOUN 180937Z 1810/1906 15006KT P6SM BKN100
     FM181800 16012KT P6SM OVC025 PROB30 1821/1824 2SM TSRA OVC015CB
     FM190000 13009KT P6SM OVC025
      TEMPO 1900/1903 P6SM -TSRA BKN015CB
     FM190300 17009KT P6SM OVC025
      TEMPO 1903/1906 P6SM -TSRA BKN025CB=



000
FTUS44 KOUN 180936 AAA
TAFOKC
TAF AMD
KOKC 180936Z 1810/1906 15005KT P6SM BKN140
     FM181800 16012KT P6SM OVC025 PROB30 1821/1824 2SM TSRA OVC015CB
     FM190000 12010KT P6SM OVC025
      TEMPO 1900/1903 P6SM -TSRA BKN015CB
     FM190300 15011KT P6SM OVC025
      TEMPO 1903/1906 P6SM -TSRA BKN025CB=



000
FTUS44 KOUN 180936 AAA
TAFOKC
TAF AMD
KOKC 180936Z 1810/1906 15005KT P6SM BKN140
     FM181800 16012KT P6SM OVC025 PROB30 1821/1824 2SM TSRA OVC015CB
     FM190000 12010KT P6SM OVC025
      TEMPO 1900/1903 P6SM -TSRA BKN015CB
     FM190300 15011KT P6SM OVC025
      TEMPO 1903/1906 P6SM -TSRA BKN025CB=



000
FTUS44 KOUN 180936 AAA
TAFOKC
TAF AMD
KOKC 180936Z 1810/1906 15005KT P6SM BKN140
     FM181800 16012KT P6SM OVC025 PROB30 1821/1824 2SM TSRA OVC015CB
     FM190000 12010KT P6SM OVC025
      TEMPO 1900/1903 P6SM -TSRA BKN015CB
     FM190300 15011KT P6SM OVC025
      TEMPO 1903/1906 P6SM -TSRA BKN025CB=



000
FTUS44 KOUN 180934 AAA
TAFHBR
TAF AMD
KHBR 180934Z 1810/1906 17004KT 1/2SM FG SCT001
     FM181400 17013KT 2SM BR OVC007
     FM181800 18011KT 5SM HZ OVC015
     FM182100 19010KT P6SM OVC100
     FM190000 15009KT P6SM BKN250 PROB30 1900/1906 P6SM TS BKN050CB=



000
FTUS44 KOUN 180526
TAFLAW
TAF
KLAW 180526Z 1806/1906 13005KT P6SM BKN050
     FM181200 15011KT 2SM BR OVC004
     FM181800 15011KT P6SM OVC015
     FM182100 16009KT P6SM OVC050 PROB30 1900/1903 P6SM -TSRA
      BKN050CB
     FM190300 12009KT P6SM SCT250 PROB30 1903/1906 P6SM -TSRA
      BKN050CB=



000
FTUS44 KOUN 180526
TAFOKC
TAF
KOKC 180526Z 1806/1906 14005KT P6SM VCSH FEW025 OVC100
     FM180800 14007KT P6SM BKN025
     FM181500 16014KT 4SM BR OVC007
      TEMPO 1815/1818 4SM -RA OVC007
     FM181800 16012KT P6SM OVC015 PROB30 1821/1824 2SM TSRA OVC015CB
     FM190000 12010KT P6SM OVC015
      TEMPO 1900/1903 P6SM -TSRA BKN015CB
     FM190300 15011KT P6SM OVC025
      TEMPO 1903/1906 P6SM -TSRA BKN025CB=



000
FTUS44 KOUN 180526
TAFLAW
TAF
KLAW 180526Z 1806/1906 13005KT P6SM BKN050
     FM181200 15011KT 2SM BR OVC004
     FM181800 15011KT P6SM OVC015
     FM182100 16009KT P6SM OVC050 PROB30 1900/1903 P6SM -TSRA
      BKN050CB
     FM190300 12009KT P6SM SCT250 PROB30 1903/1906 P6SM -TSRA
      BKN050CB=



000
FTUS44 KOUN 180526
TAFOKC
TAF
KOKC 180526Z 1806/1906 14005KT P6SM VCSH FEW025 OVC100
     FM180800 14007KT P6SM BKN025
     FM181500 16014KT 4SM BR OVC007
      TEMPO 1815/1818 4SM -RA OVC007
     FM181800 16012KT P6SM OVC015 PROB30 1821/1824 2SM TSRA OVC015CB
     FM190000 12010KT P6SM OVC015
      TEMPO 1900/1903 P6SM -TSRA BKN015CB
     FM190300 15011KT P6SM OVC025
      TEMPO 1903/1906 P6SM -TSRA BKN025CB=



000
FTUS44 KOUN 180526
TAFPNC
TAF
KPNC 180526Z 1806/1906 12008KT P6SM BKN050
     FM181300 15008KT 4SM BR OVC011
      TEMPO 1815/1818 2SM -RA
     FM181800 12009KT P6SM OVC015 PROB30 1821/1824 2SM TSRA OVC015CB
     FM190300 12008KT P6SM OVC100=



000
FTUS44 KOUN 180526
TAFSPS
TAF
KSPS 180526Z 1806/1906 13005KT P6SM BKN060
     FM181200 15011KT 2SM BR OVC004
     FM181800 15011KT P6SM OVC025
     FM182100 17010KT P6SM OVC050 PROB30 1821/1903 P6SM TS BKN050CB
     FM190300 13009KT P6SM BKN250 PROB30 1903/1906 P6SM TS BKN050CB=



000
FTUS44 KOUN 180526
TAFGAG
TAF
KGAG 180526Z 1806/1906 16009KT P6SM BKN015
     FM181200 16006KT P6SM OVC100
     FM181800 20010KT P6SM FEW250
     FM190000 12009KT P6SM OVC250 PROB30 1900/1903 P6SM -TSRA
      BKN050CB
     FM190300 12005KT P6SM OVC050 PROB30 1903/1906 P6SM -TSRA
      BKN050CB=



000
FTUS44 KOUN 180526
TAFOUN
TAF
KOUN 180526Z 1806/1906 15004KT P6SM VCSH BKN025
     FM180800 15006KT P6SM BKN025
      TEMPO 1815/1818 4SM -RA OVC007
     FM181800 16012KT P6SM OVC015 PROB30 1821/1824 2SM TSRA OVC015CB
     FM190000 13009KT P6SM OVC015
      TEMPO 1900/1903 P6SM -TSRA BKN015CB
     FM190300 17009KT P6SM OVC025
      TEMPO 1903/1906 P6SM -TSRA BKN025CB=



000
FTUS44 KOUN 180526
TAFHBR
TAF
KHBR 180526Z 1806/1906 19005KT P6SM BKN150
     FM180800 18008KT P6SM BKN025
     FM181200 17013KT 2SM BR OVC007
     FM181800 18011KT 5SM HZ OVC015
     FM182100 19010KT P6SM OVC100
     FM190000 15009KT P6SM BKN250 PROB30 1900/1906 P6SM TS BKN050CB=



000
FTUS44 KOUN 180526
TAFWWR
TAF
KWWR 180526Z 1806/1906 17009KT P6SM BKN018
     FM181200 16006KT P6SM OVC100
     FM181800 20010KT P6SM FEW250
     FM190000 14008KT P6SM OVC050
      TEMPO 1900/1903 P6SM -TSRA BKN050CB
     FM190300 10004KT P6SM OVC050
      TEMPO 1903/1906 P6SM -TSRA BKN050CB=



000
FTUS44 KOUN 180526
TAFOUN
TAF
KOUN 180526Z 1806/1906 15004KT P6SM VCSH BKN025
     FM180800 15006KT P6SM BKN025
      TEMPO 1815/1818 4SM -RA OVC007
     FM181800 16012KT P6SM OVC015 PROB30 1821/1824 2SM TSRA OVC015CB
     FM190000 13009KT P6SM OVC015
      TEMPO 1900/1903 P6SM -TSRA BKN015CB
     FM190300 17009KT P6SM OVC025
      TEMPO 1903/1906 P6SM -TSRA BKN025CB=



000
FTUS44 KOUN 180526
TAFGAG
TAF
KGAG 180526Z 1806/1906 16009KT P6SM BKN015
     FM181200 16006KT P6SM OVC100
     FM181800 20010KT P6SM FEW250
     FM190000 12009KT P6SM OVC250 PROB30 1900/1903 P6SM -TSRA
      BKN050CB
     FM190300 12005KT P6SM OVC050 PROB30 1903/1906 P6SM -TSRA
      BKN050CB=



000
FTUS44 KOUN 180526
TAFPNC
TAF
KPNC 180526Z 1806/1906 12008KT P6SM BKN050
     FM181300 15008KT 4SM BR OVC011
      TEMPO 1815/1818 2SM -RA
     FM181800 12009KT P6SM OVC015 PROB30 1821/1824 2SM TSRA OVC015CB
     FM190300 12008KT P6SM OVC100=



000
FTUS44 KOUN 180526
TAFSPS
TAF
KSPS 180526Z 1806/1906 13005KT P6SM BKN060
     FM181200 15011KT 2SM BR OVC004
     FM181800 15011KT P6SM OVC025
     FM182100 17010KT P6SM OVC050 PROB30 1821/1903 P6SM TS BKN050CB
     FM190300 13009KT P6SM BKN250 PROB30 1903/1906 P6SM TS BKN050CB=



000
FTUS44 KOUN 180526
TAFHBR
TAF
KHBR 180526Z 1806/1906 19005KT P6SM BKN150
     FM180800 18008KT P6SM BKN025
     FM181200 17013KT 2SM BR OVC007
     FM181800 18011KT 5SM HZ OVC015
     FM182100 19010KT P6SM OVC100
     FM190000 15009KT P6SM BKN250 PROB30 1900/1906 P6SM TS BKN050CB=



000
FTUS44 KOUN 180526
TAFWWR
TAF
KWWR 180526Z 1806/1906 17009KT P6SM BKN018
     FM181200 16006KT P6SM OVC100
     FM181800 20010KT P6SM FEW250
     FM190000 14008KT P6SM OVC050
      TEMPO 1900/1903 P6SM -TSRA BKN050CB
     FM190300 10004KT P6SM OVC050
      TEMPO 1903/1906 P6SM -TSRA BKN050CB=



000
FTUS44 KOUN 180526
TAFGAG
TAF
KGAG 180526Z 1806/1906 16009KT P6SM BKN015
     FM181200 16006KT P6SM OVC100
     FM181800 20010KT P6SM FEW250
     FM190000 12009KT P6SM OVC250 PROB30 1900/1903 P6SM -TSRA
      BKN050CB
     FM190300 12005KT P6SM OVC050 PROB30 1903/1906 P6SM -TSRA
      BKN050CB=



000
FTUS44 KOUN 180526
TAFGAG
TAF
KGAG 180526Z 1806/1906 16009KT P6SM BKN015
     FM181200 16006KT P6SM OVC100
     FM181800 20010KT P6SM FEW250
     FM190000 12009KT P6SM OVC250 PROB30 1900/1903 P6SM -TSRA
      BKN050CB
     FM190300 12005KT P6SM OVC050 PROB30 1903/1906 P6SM -TSRA
      BKN050CB=



000
FTUS44 KOUN 180526
TAFLAW
TAF
KLAW 180526Z 1806/1906 13005KT P6SM BKN050
     FM181200 15011KT 2SM BR OVC004
     FM181800 15011KT P6SM OVC015
     FM182100 16009KT P6SM OVC050 PROB30 1900/1903 P6SM -TSRA
      BKN050CB
     FM190300 12009KT P6SM SCT250 PROB30 1903/1906 P6SM -TSRA
      BKN050CB=



000
FTUS44 KOUN 180526
TAFLAW
TAF
KLAW 180526Z 1806/1906 13005KT P6SM BKN050
     FM181200 15011KT 2SM BR OVC004
     FM181800 15011KT P6SM OVC015
     FM182100 16009KT P6SM OVC050 PROB30 1900/1903 P6SM -TSRA
      BKN050CB
     FM190300 12009KT P6SM SCT250 PROB30 1903/1906 P6SM -TSRA
      BKN050CB=



000
FTUS44 KOUN 180526
TAFOUN
TAF
KOUN 180526Z 1806/1906 15004KT P6SM VCSH BKN025
     FM180800 15006KT P6SM BKN025
      TEMPO 1815/1818 4SM -RA OVC007
     FM181800 16012KT P6SM OVC015 PROB30 1821/1824 2SM TSRA OVC015CB
     FM190000 13009KT P6SM OVC015
      TEMPO 1900/1903 P6SM -TSRA BKN015CB
     FM190300 17009KT P6SM OVC025
      TEMPO 1903/1906 P6SM -TSRA BKN025CB=



000
FTUS44 KOUN 180526
TAFWWR
TAF
KWWR 180526Z 1806/1906 17009KT P6SM BKN018
     FM181200 16006KT P6SM OVC100
     FM181800 20010KT P6SM FEW250
     FM190000 14008KT P6SM OVC050
      TEMPO 1900/1903 P6SM -TSRA BKN050CB
     FM190300 10004KT P6SM OVC050
      TEMPO 1903/1906 P6SM -TSRA BKN050CB=



000
FTUS44 KOUN 180526
TAFWWR
TAF
KWWR 180526Z 1806/1906 17009KT P6SM BKN018
     FM181200 16006KT P6SM OVC100
     FM181800 20010KT P6SM FEW250
     FM190000 14008KT P6SM OVC050
      TEMPO 1900/1903 P6SM -TSRA BKN050CB
     FM190300 10004KT P6SM OVC050
      TEMPO 1903/1906 P6SM -TSRA BKN050CB=



000
FTUS44 KOUN 180526
TAFOUN
TAF
KOUN 180526Z 1806/1906 15004KT P6SM VCSH BKN025
     FM180800 15006KT P6SM BKN025
      TEMPO 1815/1818 4SM -RA OVC007
     FM181800 16012KT P6SM OVC015 PROB30 1821/1824 2SM TSRA OVC015CB
     FM190000 13009KT P6SM OVC015
      TEMPO 1900/1903 P6SM -TSRA BKN015CB
     FM190300 17009KT P6SM OVC025
      TEMPO 1903/1906 P6SM -TSRA BKN025CB=



000
FTUS44 KOUN 180526
TAFOKC
TAF
KOKC 180526Z 1806/1906 14005KT P6SM VCSH FEW025 OVC100
     FM180800 14007KT P6SM BKN025
     FM181500 16014KT 4SM BR OVC007
      TEMPO 1815/1818 4SM -RA OVC007
     FM181800 16012KT P6SM OVC015 PROB30 1821/1824 2SM TSRA OVC015CB
     FM190000 12010KT P6SM OVC015
      TEMPO 1900/1903 P6SM -TSRA BKN015CB
     FM190300 15011KT P6SM OVC025
      TEMPO 1903/1906 P6SM -TSRA BKN025CB=



000
FTUS44 KOUN 180526
TAFHBR
TAF
KHBR 180526Z 1806/1906 19005KT P6SM BKN150
     FM180800 18008KT P6SM BKN025
     FM181200 17013KT 2SM BR OVC007
     FM181800 18011KT 5SM HZ OVC015
     FM182100 19010KT P6SM OVC100
     FM190000 15009KT P6SM BKN250 PROB30 1900/1906 P6SM TS BKN050CB=



000
FTUS44 KOUN 180526
TAFSPS
TAF
KSPS 180526Z 1806/1906 13005KT P6SM BKN060
     FM181200 15011KT 2SM BR OVC004
     FM181800 15011KT P6SM OVC025
     FM182100 17010KT P6SM OVC050 PROB30 1821/1903 P6SM TS BKN050CB
     FM190300 13009KT P6SM BKN250 PROB30 1903/1906 P6SM TS BKN050CB=



000
FTUS44 KOUN 180526
TAFPNC
TAF
KPNC 180526Z 1806/1906 12008KT P6SM BKN050
     FM181300 15008KT 4SM BR OVC011
      TEMPO 1815/1818 2SM -RA
     FM181800 12009KT P6SM OVC015 PROB30 1821/1824 2SM TSRA OVC015CB
     FM190300 12008KT P6SM OVC100=



000
FTUS44 KOUN 180526
TAFHBR
TAF
KHBR 180526Z 1806/1906 19005KT P6SM BKN150
     FM180800 18008KT P6SM BKN025
     FM181200 17013KT 2SM BR OVC007
     FM181800 18011KT 5SM HZ OVC015
     FM182100 19010KT P6SM OVC100
     FM190000 15009KT P6SM BKN250 PROB30 1900/1906 P6SM TS BKN050CB=



000
FTUS44 KOUN 180526
TAFOKC
TAF
KOKC 180526Z 1806/1906 14005KT P6SM VCSH FEW025 OVC100
     FM180800 14007KT P6SM BKN025
     FM181500 16014KT 4SM BR OVC007
      TEMPO 1815/1818 4SM -RA OVC007
     FM181800 16012KT P6SM OVC015 PROB30 1821/1824 2SM TSRA OVC015CB
     FM190000 12010KT P6SM OVC015
      TEMPO 1900/1903 P6SM -TSRA BKN015CB
     FM190300 15011KT P6SM OVC025
      TEMPO 1903/1906 P6SM -TSRA BKN025CB=



000
FTUS44 KOUN 180526
TAFSPS
TAF
KSPS 180526Z 1806/1906 13005KT P6SM BKN060
     FM181200 15011KT 2SM BR OVC004
     FM181800 15011KT P6SM OVC025
     FM182100 17010KT P6SM OVC050 PROB30 1821/1903 P6SM TS BKN050CB
     FM190300 13009KT P6SM BKN250 PROB30 1903/1906 P6SM TS BKN050CB=



000
FTUS44 KOUN 180526
TAFPNC
TAF
KPNC 180526Z 1806/1906 12008KT P6SM BKN050
     FM181300 15008KT 4SM BR OVC011
      TEMPO 1815/1818 2SM -RA
     FM181800 12009KT P6SM OVC015 PROB30 1821/1824 2SM TSRA OVC015CB
     FM190300 12008KT P6SM OVC100=



000
FTUS44 KOUN 172320
TAFLAW
TAF
KLAW 172320Z 1800/1824 14010KT P6SM VCTS BKN025 BKN040CB
      TEMPO 1800/1802 3SM TSRA BKN025CB
     FM180200 14008KT 5SM -SHRA VCTS BKN040CB
     FM180600 13008KT P6SM BKN008
     FM181200 15011KT 2SM BR OVC004
     FM181800 15011KT P6SM OVC015=



000
FTUS44 KOUN 172320
TAFSPS
TAF
KSPS 172320Z 1800/1824 13010KT P6SM VCTS BKN040CB
      TEMPO 1800/1802 3SM TSRA BKN030CB
     FM180200 14008KT 5SM -SHRA VCTS BKN040CB
     FM180600 13008KT P6SM BKN008
     FM181200 15011KT 2SM BR OVC004
     FM181800 15011KT P6SM OVC025=



000
FTUS44 KOUN 172320
TAFHBR
TAF
KHBR 172320Z 1800/1824 16011KT P6SM VCTS SCT015 BKN027CB
      TEMPO 1800/1802 3SM TSRA BKN015CB
     FM180300 16010KT 5SM -SHRA VCTS BKN025CB
     FM180600 15008KT P6SM BKN008
     FM181200 17013KT 2SM BR OVC007
     FM181800 18011KT 5SM HZ OVC015
     FM182100 19011KT P6SM SKC=



000
FTUS44 KOUN 172320
TAFOKC
TAF
KOKC 172320Z 1800/1824 14010KT P6SM VCTS OVC040CB
     FM180500 15008KT 6SM -SHRA BKN015
     FM181500 16014KT 4SM BR OVC007
      TEMPO 1815/1818 4SM -RA OVC007
     FM181800 16012KT P6SM OVC015 PROB30 1821/1824 2SM TSRA
      OVC015CB=



000
FTUS44 KOUN 172320
TAFGAG
TAF
KGAG 172320Z 1800/1824 17013G22KT P6SM VCTS SCT040CB
      TEMPO 1800/1802 4SM TSRA BKN030CB
     FM180400 16009KT P6SM SCT030 BKN100
     FM181200 16006KT P6SM OVC100
     FM181800 20010KT P6SM FEW250=



000
FTUS44 KOUN 172320
TAFLAW
TAF
KLAW 172320Z 1800/1824 14010KT P6SM VCTS BKN025 BKN040CB
      TEMPO 1800/1802 3SM TSRA BKN025CB
     FM180200 14008KT 5SM -SHRA VCTS BKN040CB
     FM180600 13008KT P6SM BKN008
     FM181200 15011KT 2SM BR OVC004
     FM181800 15011KT P6SM OVC015=



000
FTUS44 KOUN 172320
TAFSPS
TAF
KSPS 172320Z 1800/1824 13010KT P6SM VCTS BKN040CB
      TEMPO 1800/1802 3SM TSRA BKN030CB
     FM180200 14008KT 5SM -SHRA VCTS BKN040CB
     FM180600 13008KT P6SM BKN008
     FM181200 15011KT 2SM BR OVC004
     FM181800 15011KT P6SM OVC025=



000
FTUS44 KOUN 172320
TAFOKC
TAF
KOKC 172320Z 1800/1824 14010KT P6SM VCTS OVC040CB
     FM180500 15008KT 6SM -SHRA BKN015
     FM181500 16014KT 4SM BR OVC007
      TEMPO 1815/1818 4SM -RA OVC007
     FM181800 16012KT P6SM OVC015 PROB30 1821/1824 2SM TSRA
      OVC015CB=



000
FTUS44 KOUN 172320
TAFHBR
TAF
KHBR 172320Z 1800/1824 16011KT P6SM VCTS SCT015 BKN027CB
      TEMPO 1800/1802 3SM TSRA BKN015CB
     FM180300 16010KT 5SM -SHRA VCTS BKN025CB
     FM180600 15008KT P6SM BKN008
     FM181200 17013KT 2SM BR OVC007
     FM181800 18011KT 5SM HZ OVC015
     FM182100 19011KT P6SM SKC=



000
FTUS44 KOUN 172320
TAFGAG
TAF
KGAG 172320Z 1800/1824 17013G22KT P6SM VCTS SCT040CB
      TEMPO 1800/1802 4SM TSRA BKN030CB
     FM180400 16009KT P6SM SCT030 BKN100
     FM181200 16006KT P6SM OVC100
     FM181800 20010KT P6SM FEW250=



000
FTUS44 KOUN 172320
TAFOUN
TAF
KOUN 172320Z 1800/1824 14010KT P6SM VCTS OVC040CB
     FM180500 15008KT 6SM -SHRA BKN015
      TEMPO 1815/1818 4SM -RA OVC007
     FM181800 16012KT P6SM OVC015 PROB30 1821/1824 2SM TSRA
      OVC015CB=



000
FTUS44 KOUN 172320
TAFPNC
TAF
KPNC 172320Z 1800/1824 13010KT P6SM SCT040 OVC100
     FM180200 12008KT P6SM VCTS OVC040CB
      TEMPO 1802/1806 3SM TSRA BKN030CB
     FM180800 12008KT 5SM -SHRA BR BKN030
     FM181300 15008KT 4SM BR OVC011
      TEMPO 1815/1818 2SM -RA
     FM181800 12009KT P6SM OVC015 PROB30 1821/1824 2SM TSRA
      OVC015CB=



000
FTUS44 KOUN 172320
TAFWWR
TAF
KWWR 172320Z 1800/1824 17013G20KT P6SM VCTS SCT040CB
      TEMPO 1800/1802 4SM TSRA BKN030CB
     FM180400 16009KT P6SM SCT030 BKN100
     FM181200 16006KT P6SM OVC100
     FM181800 20010KT P6SM FEW250=



000
FTUS44 KOUN 172320
TAFLAW
TAF
KLAW 172320Z 1800/1824 14010KT P6SM VCTS BKN025 BKN040CB
      TEMPO 1800/1802 3SM TSRA BKN025CB
     FM180200 14008KT 5SM -SHRA VCTS BKN040CB
     FM180600 13008KT P6SM BKN008
     FM181200 15011KT 2SM BR OVC004
     FM181800 15011KT P6SM OVC015=



000
FTUS44 KOUN 172320
TAFWWR
TAF
KWWR 172320Z 1800/1824 17013G20KT P6SM VCTS SCT040CB
      TEMPO 1800/1802 4SM TSRA BKN030CB
     FM180400 16009KT P6SM SCT030 BKN100
     FM181200 16006KT P6SM OVC100
     FM181800 20010KT P6SM FEW250=



000
FTUS44 KOUN 172320
TAFPNC
TAF
KPNC 172320Z 1800/1824 13010KT P6SM SCT040 OVC100
     FM180200 12008KT P6SM VCTS OVC040CB
      TEMPO 1802/1806 3SM TSRA BKN030CB
     FM180800 12008KT 5SM -SHRA BR BKN030
     FM181300 15008KT 4SM BR OVC011
      TEMPO 1815/1818 2SM -RA
     FM181800 12009KT P6SM OVC015 PROB30 1821/1824 2SM TSRA
      OVC015CB=



000
FTUS44 KOUN 172320
TAFOUN
TAF
KOUN 172320Z 1800/1824 14010KT P6SM VCTS OVC040CB
     FM180500 15008KT 6SM -SHRA BKN015
      TEMPO 1815/1818 4SM -RA OVC007
     FM181800 16012KT P6SM OVC015 PROB30 1821/1824 2SM TSRA
      OVC015CB=



000
FTUS44 KOUN 171728
TAFOUN
TAF
KOUN 171728Z 1718/1818 12010G15KT P6SM BKN040 BKN100
      TEMPO 1718/1722 4SM -TSRA BKN030CB
     FM180000 14010KT P6SM VCTS OVC040CB
     FM180500 15008KT 6SM -SHRA BKN015=



000
FTUS44 KOUN 171728
TAFOUN
TAF
KOUN 171728Z 1718/1818 12010G15KT P6SM BKN040 BKN100
      TEMPO 1718/1722 4SM -TSRA BKN030CB
     FM180000 14010KT P6SM VCTS OVC040CB
     FM180500 15008KT 6SM -SHRA BKN015=



000
FTUS44 KOUN 171728
TAFWWR
TAF
KWWR 171728Z 1718/1818 18012G20KT P6SM SCT050
     FM172200 17013G22KT P6SM VCTS SCT040CB
      TEMPO 1722/1802 4SM TSRA BKN030CB
     FM180400 16009KT P6SM SCT030 BKN100=



000
FTUS44 KOUN 171728
TAFLAW
TAF
KLAW 171728Z 1718/1818 12010G15KT P6SM VCTS BKN040CB
      TEMPO 1718/1721 3SM TSRA BKN040CB
     FM172100 14010KT P6SM VCTS BKN040CB
      TEMPO 1722/1802 3SM TSRA BKN030CB
     FM180200 14008KT 5SM -SHRA VCTS BKN040CB
     FM180600 13008KT P6SM BKN008=



000
FTUS44 KOUN 171728
TAFGAG
TAF
KGAG 171728Z 1718/1818 18012G20KT P6SM SCT050
     FM172200 17013G22KT P6SM VCTS SCT040CB
      TEMPO 1722/1802 4SM TSRA BKN030CB
     FM180400 16009KT P6SM SCT030 BKN100=



000
FTUS44 KOUN 171728
TAFPNC
TAF
KPNC 171728Z 1718/1818 13010KT P6SM SCT100 OVC200
     FM180200 12008KT P6SM VCTS OVC040CB
      TEMPO 1802/1806 3SM TSRA BKN030CB
     FM180800 12008KT 5SM -SHRA BR BKN030=



000
FTUS44 KOUN 171728
TAFSPS
TAF
KSPS 171728Z 1718/1818 11012G18KT P6SM BKN010
      TEMPO 1718/1721 3SM TSRA BKN007CB
     FM172100 13010KT P6SM VCTS BKN040CB
      TEMPO 1722/1802 3SM TSRA BKN030CB
     FM180200 14008KT 5SM -SHRA VCTS BKN040CB
     FM180600 13008KT P6SM BKN008=



000
FTUS44 KOUN 171728
TAFHBR
TAF
KHBR 171728Z 1718/1818 13010G15KT P6SM VCTS SCT008 BKN050CB
      TEMPO 1718/1720 3SM TSRA BKN040CB
     FM172100 16011KT P6SM VCTS BKN040CB
      TEMPO 1722/1802 3SM TSRA BKN030CB
     FM180300 16010KT 5SM -SHRA VCTS BKN040CB
     FM180600 15008KT P6SM BKN008=



000
FTUS44 KOUN 171728
TAFWWR
TAF
KWWR 171728Z 1718/1818 18012G20KT P6SM SCT050
     FM172200 17013G22KT P6SM VCTS SCT040CB
      TEMPO 1722/1802 4SM TSRA BKN030CB
     FM180400 16009KT P6SM SCT030 BKN100=



000
FTUS44 KOUN 171728
TAFOKC
TAF
KOKC 171728Z 1718/1818 12010G15KT P6SM BKN040 BKN100
      TEMPO 1718/1722 4SM -TSRA BKN030CB
     FM180000 14010KT P6SM VCTS OVC040CB
     FM180500 15008KT 6SM -SHRA BKN015=



000
FTUS44 KOUN 171728
TAFOUN
TAF
KOUN 171728Z 1718/1818 12010G15KT P6SM BKN040 BKN100
      TEMPO 1718/1722 4SM -TSRA BKN030CB
     FM180000 14010KT P6SM VCTS OVC040CB
     FM180500 15008KT 6SM -SHRA BKN015=



000
FTUS44 KOUN 171728
TAFHBR
TAF
KHBR 171728Z 1718/1818 13010G15KT P6SM VCTS SCT008 BKN050CB
      TEMPO 1718/1720 3SM TSRA BKN040CB
     FM172100 16011KT P6SM VCTS BKN040CB
      TEMPO 1722/1802 3SM TSRA BKN030CB
     FM180300 16010KT 5SM -SHRA VCTS BKN040CB
     FM180600 15008KT P6SM BKN008=



000
FTUS44 KOUN 171728
TAFGAG
TAF
KGAG 171728Z 1718/1818 18012G20KT P6SM SCT050
     FM172200 17013G22KT P6SM VCTS SCT040CB
      TEMPO 1722/1802 4SM TSRA BKN030CB
     FM180400 16009KT P6SM SCT030 BKN100=



000
FTUS44 KOUN 171728
TAFOKC
TAF
KOKC 171728Z 1718/1818 12010G15KT P6SM BKN040 BKN100
      TEMPO 1718/1722 4SM -TSRA BKN030CB
     FM180000 14010KT P6SM VCTS OVC040CB
     FM180500 15008KT 6SM -SHRA BKN015=



000
FTUS44 KOUN 171728
TAFSPS
TAF
KSPS 171728Z 1718/1818 11012G18KT P6SM BKN010
      TEMPO 1718/1721 3SM TSRA BKN007CB
     FM172100 13010KT P6SM VCTS BKN040CB
      TEMPO 1722/1802 3SM TSRA BKN030CB
     FM180200 14008KT 5SM -SHRA VCTS BKN040CB
     FM180600 13008KT P6SM BKN008=



000
FTUS44 KOUN 171728
TAFLAW
TAF
KLAW 171728Z 1718/1818 12010G15KT P6SM VCTS BKN040CB
      TEMPO 1718/1721 3SM TSRA BKN040CB
     FM172100 14010KT P6SM VCTS BKN040CB
      TEMPO 1722/1802 3SM TSRA BKN030CB
     FM180200 14008KT 5SM -SHRA VCTS BKN040CB
     FM180600 13008KT P6SM BKN008=



000
FTUS44 KOUN 171728
TAFLAW
TAF
KLAW 171728Z 1718/1818 12010G15KT P6SM VCTS BKN040CB
      TEMPO 1718/1721 3SM TSRA BKN040CB
     FM172100 14010KT P6SM VCTS BKN040CB
      TEMPO 1722/1802 3SM TSRA BKN030CB
     FM180200 14008KT 5SM -SHRA VCTS BKN040CB
     FM180600 13008KT P6SM BKN008=



000
FTUS44 KOUN 171728
TAFGAG
TAF
KGAG 171728Z 1718/1818 18012G20KT P6SM SCT050
     FM172200 17013G22KT P6SM VCTS SCT040CB
      TEMPO 1722/1802 4SM TSRA BKN030CB
     FM180400 16009KT P6SM SCT030 BKN100=



000
FTUS44 KOUN 171728
TAFLAW
TAF
KLAW 171728Z 1718/1818 12010G15KT P6SM VCTS BKN040CB
      TEMPO 1718/1721 3SM TSRA BKN040CB
     FM172100 14010KT P6SM VCTS BKN040CB
      TEMPO 1722/1802 3SM TSRA BKN030CB
     FM180200 14008KT 5SM -SHRA VCTS BKN040CB
     FM180600 13008KT P6SM BKN008=



000
FTUS44 KOUN 171728
TAFSPS
TAF
KSPS 171728Z 1718/1818 11012G18KT P6SM BKN010
      TEMPO 1718/1721 3SM TSRA BKN007CB
     FM172100 13010KT P6SM VCTS BKN040CB
      TEMPO 1722/1802 3SM TSRA BKN030CB
     FM180200 14008KT 5SM -SHRA VCTS BKN040CB
     FM180600 13008KT P6SM BKN008=



000
FTUS44 KOUN 171728
TAFPNC
TAF
KPNC 171728Z 1718/1818 13010KT P6SM SCT100 OVC200
     FM180200 12008KT P6SM VCTS OVC040CB
      TEMPO 1802/1806 3SM TSRA BKN030CB
     FM180800 12008KT 5SM -SHRA BR BKN030=



000
FTUS44 KOUN 171728
TAFOKC
TAF
KOKC 171728Z 1718/1818 12010G15KT P6SM BKN040 BKN100
      TEMPO 1718/1722 4SM -TSRA BKN030CB
     FM180000 14010KT P6SM VCTS OVC040CB
     FM180500 15008KT 6SM -SHRA BKN015=



000
FTUS44 KOUN 171728
TAFHBR
TAF
KHBR 171728Z 1718/1818 13010G15KT P6SM VCTS SCT008 BKN050CB
      TEMPO 1718/1720 3SM TSRA BKN040CB
     FM172100 16011KT P6SM VCTS BKN040CB
      TEMPO 1722/1802 3SM TSRA BKN030CB
     FM180300 16010KT 5SM -SHRA VCTS BKN040CB
     FM180600 15008KT P6SM BKN008=



000
FTUS44 KOUN 171728
TAFGAG
TAF
KGAG 171728Z 1718/1818 18012G20KT P6SM SCT050
     FM172200 17013G22KT P6SM VCTS SCT040CB
      TEMPO 1722/1802 4SM TSRA BKN030CB
     FM180400 16009KT P6SM SCT030 BKN100=



000
FTUS44 KOUN 171728
TAFWWR
TAF
KWWR 171728Z 1718/1818 18012G20KT P6SM SCT050
     FM172200 17013G22KT P6SM VCTS SCT040CB
      TEMPO 1722/1802 4SM TSRA BKN030CB
     FM180400 16009KT P6SM SCT030 BKN100=



000
FTUS44 KOUN 171728
TAFOUN
TAF
KOUN 171728Z 1718/1818 12010G15KT P6SM BKN040 BKN100
      TEMPO 1718/1722 4SM -TSRA BKN030CB
     FM180000 14010KT P6SM VCTS OVC040CB
     FM180500 15008KT 6SM -SHRA BKN015=



000
FTUS44 KOUN 171728
TAFPNC
TAF
KPNC 171728Z 1718/1818 13010KT P6SM SCT100 OVC200
     FM180200 12008KT P6SM VCTS OVC040CB
      TEMPO 1802/1806 3SM TSRA BKN030CB
     FM180800 12008KT 5SM -SHRA BR BKN030=



000
FTUS44 KOUN 171728
TAFOKC
TAF
KOKC 171728Z 1718/1818 12010G15KT P6SM BKN040 BKN100
      TEMPO 1718/1722 4SM -TSRA BKN030CB
     FM180000 14010KT P6SM VCTS OVC040CB
     FM180500 15008KT 6SM -SHRA BKN015=



000
FTUS44 KOUN 171728
TAFSPS
TAF
KSPS 171728Z 1718/1818 11012G18KT P6SM BKN010
      TEMPO 1718/1721 3SM TSRA BKN007CB
     FM172100 13010KT P6SM VCTS BKN040CB
      TEMPO 1722/1802 3SM TSRA BKN030CB
     FM180200 14008KT 5SM -SHRA VCTS BKN040CB
     FM180600 13008KT P6SM BKN008=



000
FTUS44 KOUN 171728
TAFPNC
TAF
KPNC 171728Z 1718/1818 13010KT P6SM SCT100 OVC200
     FM180200 12008KT P6SM VCTS OVC040CB
      TEMPO 1802/1806 3SM TSRA BKN030CB
     FM180800 12008KT 5SM -SHRA BR BKN030=



000
FTUS44 KOUN 171728
TAFWWR
TAF
KWWR 171728Z 1718/1818 18012G20KT P6SM SCT050
     FM172200 17013G22KT P6SM VCTS SCT040CB
      TEMPO 1722/1802 4SM TSRA BKN030CB
     FM180400 16009KT P6SM SCT030 BKN100=



000
FTUS44 KOUN 171728
TAFHBR
TAF
KHBR 171728Z 1718/1818 13010G15KT P6SM VCTS SCT008 BKN050CB
      TEMPO 1718/1720 3SM TSRA BKN040CB
     FM172100 16011KT P6SM VCTS BKN040CB
      TEMPO 1722/1802 3SM TSRA BKN030CB
     FM180300 16010KT 5SM -SHRA VCTS BKN040CB
     FM180600 15008KT P6SM BKN008=



000
FTUS44 KOUN 171417 AAA
TAFSPS
TAF AMD
KSPS 171417Z 1714/1812 06012G20KT P6SM VCTS BKN012 OVC050CB
      TEMPO 1714/1716 2SM TSRA BKN012CB
     FM171600 12011KT P6SM BKN025
     FM171800 17011KT P6SM BKN035
     FM180000 16008KT P6SM VCTS BKN040CB
     FM180600 15008KT P6SM BKN008=



000
FTUS44 KOUN 171417 AAA
TAFSPS
TAF AMD
KSPS 171417Z 1714/1812 06012G20KT P6SM VCTS BKN012 OVC050CB
      TEMPO 1714/1716 2SM TSRA BKN012CB
     FM171600 12011KT P6SM BKN025
     FM171800 17011KT P6SM BKN035
     FM180000 16008KT P6SM VCTS BKN040CB
     FM180600 15008KT P6SM BKN008=



000
FTUS44 KOUN 171414 AAA
TAFLAW
TAF AMD
KLAW 171414Z 1714/1812 08010KT P6SM VCTS SCT005 BKN050CB
      TEMPO 1714/1716 2SM TSRA BKN015CB
     FM171600 12010G15KT P6SM BKN015
     FM172000 16010KT P6SM BKN035
     FM180000 16008KT P6SM VCTS BKN040CB
     FM180600 15008KT P6SM BKN008=



000
FTUS44 KOUN 171412 AAA
TAFHBR
TAF AMD
KHBR 171412Z 1714/1812 10012G20KT P6SM VCTS SCT005 BKN060CB
      TEMPO 1714/1716 2SM TSRA BR OVC005CB
     FM171600 12010G15KT P6SM BKN015
     FM172000 16012KT P6SM BKN035
     FM172300 16010KT P6SM VCTS BKN040CB
     FM180600 15008KT P6SM BKN008=



000
FTUS44 KOUN 171412 AAA
TAFHBR
TAF AMD
KHBR 171412Z 1714/1812 10012G20KT P6SM VCTS SCT005 BKN060CB
      TEMPO 1714/1716 2SM TSRA BR OVC005CB
     FM171600 12010G15KT P6SM BKN015
     FM172000 16012KT P6SM BKN035
     FM172300 16010KT P6SM VCTS BKN040CB
     FM180600 15008KT P6SM BKN008=



000
FTUS44 KOUN 171412 AAA
TAFHBR
TAF AMD
KHBR 171412Z 1714/1812 10012G20KT P6SM VCTS SCT005 BKN060CB
      TEMPO 1714/1716 2SM TSRA BR OVC005CB
     FM171600 12010G15KT P6SM BKN015
     FM172000 16012KT P6SM BKN035
     FM172300 16010KT P6SM VCTS BKN040CB
     FM180600 15008KT P6SM BKN008=



000
FTUS44 KOUN 171412 AAA
TAFHBR
TAF AMD
KHBR 171412Z 1714/1812 10012G20KT P6SM VCTS SCT005 BKN060CB
      TEMPO 1714/1716 2SM TSRA BR OVC005CB
     FM171600 12010G15KT P6SM BKN015
     FM172000 16012KT P6SM BKN035
     FM172300 16010KT P6SM VCTS BKN040CB
     FM180600 15008KT P6SM BKN008=



000
FTUS44 KOUN 171352 AAA
TAFPNC
TAF AMD
KPNC 171352Z 1714/1812 30010KT 6SM RA BR SCT025 OVC050
      TEMPO 1714/1716 5SM -TSRA BR OVC030CB
     FM172100 13009KT P6SM BKN035
     FM180200 12008KT P6SM VCTS OVC040CB
     FM180800 12008KT P6SM BKN008=



000
FTUS44 KOUN 171348 AAA
TAFWWR
TAF AMD
KWWR 171348Z 1714/1812 11012KT P6SM FEW008 SCT040
      TEMPO 1714/1716 BKN008
     FM171600 15013G20KT P6SM BKN015
     FM171800 16014G22KT P6SM BKN025
     FM172100 15013G20KT P6SM BKN035
     FM172300 15012KT P6SM VCTS BKN040CB
     FM180600 16008KT P6SM BKN008=



000
FTUS44 KOUN 171348 AAA
TAFWWR
TAF AMD
KWWR 171348Z 1714/1812 11012KT P6SM FEW008 SCT040
      TEMPO 1714/1716 BKN008
     FM171600 15013G20KT P6SM BKN015
     FM171800 16014G22KT P6SM BKN025
     FM172100 15013G20KT P6SM BKN035
     FM172300 15012KT P6SM VCTS BKN040CB
     FM180600 16008KT P6SM BKN008=



000
FTUS44 KOUN 171348 AAA
TAFWWR
TAF AMD
KWWR 171348Z 1714/1812 11012KT P6SM FEW008 SCT040
      TEMPO 1714/1716 BKN008
     FM171600 15013G20KT P6SM BKN015
     FM171800 16014G22KT P6SM BKN025
     FM172100 15013G20KT P6SM BKN035
     FM172300 15012KT P6SM VCTS BKN040CB
     FM180600 16008KT P6SM BKN008=



000
FTUS44 KOUN 171348 AAA
TAFWWR
TAF AMD
KWWR 171348Z 1714/1812 11012KT P6SM FEW008 SCT040
      TEMPO 1714/1716 BKN008
     FM171600 15013G20KT P6SM BKN015
     FM171800 16014G22KT P6SM BKN025
     FM172100 15013G20KT P6SM BKN035
     FM172300 15012KT P6SM VCTS BKN040CB
     FM180600 16008KT P6SM BKN008=



000
FTUS44 KOUN 171347 AAA
TAFGAG
TAF AMD
KGAG 171347Z 1714/1812 12012KT P6SM FEW008 SCT040
      TEMPO 1714/1716 BKN008
     FM171600 15013G20KT P6SM BKN015
     FM171800 16014G22KT P6SM BKN025
     FM172100 15013G20KT P6SM BKN035
     FM172300 15012KT P6SM VCTS BKN040CB
     FM180600 16008KT P6SM BKN008=



000
FTUS44 KOUN 171347 AAA
TAFGAG
TAF AMD
KGAG 171347Z 1714/1812 12012KT P6SM FEW008 SCT040
      TEMPO 1714/1716 BKN008
     FM171600 15013G20KT P6SM BKN015
     FM171800 16014G22KT P6SM BKN025
     FM172100 15013G20KT P6SM BKN035
     FM172300 15012KT P6SM VCTS BKN040CB
     FM180600 16008KT P6SM BKN008=



000
FTUS44 KOUN 171347 AAA
TAFGAG
TAF AMD
KGAG 171347Z 1714/1812 12012KT P6SM FEW008 SCT040
      TEMPO 1714/1716 BKN008
     FM171600 15013G20KT P6SM BKN015
     FM171800 16014G22KT P6SM BKN025
     FM172100 15013G20KT P6SM BKN035
     FM172300 15012KT P6SM VCTS BKN040CB
     FM180600 16008KT P6SM BKN008=



000
FTUS44 KOUN 171345 AAB
TAFOUN
TAF AMD
KOUN 171345Z 1714/1812 05010G15KT P6SM VCTS SCT030 BKN060CB
      TEMPO 1714/1716 5SM -TSRA BKN030CB
     FM171900 12010KT P6SM BKN040
     FM180200 14010KT P6SM VCTS OVC040CB
     FM180800 15008KT P6SM BKN008=



000
FTUS44 KOUN 171345 AAB
TAFOUN
TAF AMD
KOUN 171345Z 1714/1812 05010G15KT P6SM VCTS SCT030 BKN060CB
      TEMPO 1714/1716 5SM -TSRA BKN030CB
     FM171900 12010KT P6SM BKN040
     FM180200 14010KT P6SM VCTS OVC040CB
     FM180800 15008KT P6SM BKN008=



000
FTUS44 KOUN 171344 AAA
TAFOKC
TAF AMD
KOKC 171344Z 1714/1812 05010G15KT P6SM VCTS SCT030 BKN060CB
      TEMPO 1714/1716 5SM -TSRA BKN030CB
     FM171900 13010G16KT P6SM BKN040
     FM180200 14010KT P6SM VCTS OVC040CB
     FM180800 15008KT P6SM BKN008=



000
FTUS44 KOUN 171344 AAA
TAFOKC
TAF AMD
KOKC 171344Z 1714/1812 05010G15KT P6SM VCTS SCT030 BKN060CB
      TEMPO 1714/1716 5SM -TSRA BKN030CB
     FM171900 13010G16KT P6SM BKN040
     FM180200 14010KT P6SM VCTS OVC040CB
     FM180800 15008KT P6SM BKN008=



000
FTUS44 KOUN 171126
TAFSPS
TAF
KSPS 171126Z 1712/1812 17011KT P6SM BKN012
     FM171600 17011KT P6SM BKN025
     FM171800 17011KT P6SM BKN035
     FM180000 16008KT P6SM VCTS BKN040CB
     FM180600 15008KT P6SM BKN008=



000
FTUS44 KOUN 171126
TAFGAG
TAF
KGAG 171126Z 1712/1812 12012KT P6SM BKN008
     FM171600 15013G20KT P6SM BKN015
     FM171800 16014G22KT P6SM BKN025
     FM172100 15013G20KT P6SM BKN035
     FM172300 15012KT P6SM VCTS BKN040CB
     FM180600 16008KT P6SM BKN008=



000
FTUS44 KOUN 171126
TAFPNC
TAF
KPNC 171126Z 1712/1812 30010KT 6SM -TSRA SCT021 OVC050CB
      TEMPO 1712/1714 VRB10G20KT 2SM TSRA BR BKN021CB
     FM171500 12009KT P6SM BKN021
     FM172100 13009KT P6SM BKN035
     FM180200 12008KT P6SM VCTS OVC040CB
     FM180800 12008KT P6SM BKN008=



000
FTUS44 KOUN 171126
TAFHBR
TAF
KHBR 171126Z 1712/1812 08010KT 6SM -TSRA SCT005 OVC040CB
      TEMPO 1712/1714 3SM TSRA BKN005CB
     FM171400 12010KT P6SM BKN005
     FM171600 15010KT P6SM BKN015
     FM172000 16012KT P6SM BKN035
     FM172300 16010KT P6SM VCTS BKN040CB
     FM180600 15008KT P6SM BKN008=



000
FTUS44 KOUN 171126
TAFLAW
TAF
KLAW 171126Z 1712/1812 08006KT 5SM BR VCTS BKN007CB
      TEMPO 1712/1713 28010G20KT
     FM171400 12008KT P6SM BKN006
     FM171600 14008KT P6SM BKN015
     FM172000 16010KT P6SM BKN035
     FM180000 16008KT P6SM VCTS BKN040CB
     FM180600 15008KT P6SM BKN008=



000
FTUS44 KOUN 171126
TAFSPS
TAF
KSPS 171126Z 1712/1812 17011KT P6SM BKN012
     FM171600 17011KT P6SM BKN025
     FM171800 17011KT P6SM BKN035
     FM180000 16008KT P6SM VCTS BKN040CB
     FM180600 15008KT P6SM BKN008=



000
FTUS44 KOUN 171126
TAFOKC
TAF
KOKC 171126Z 1712/1812 33008KT P6SM VCTS SCT022 OVC050CB
      TEMPO 1712/1714 6SM -TSRA SCT016 BKN022CB
     FM171400 11008KT P6SM BKN025
     FM171900 14010KT P6SM BKN040
     FM180200 14010KT P6SM VCTS OVC040CB
     FM180800 15008KT P6SM BKN008=



000
FTUS44 KOUN 171126
TAFWWR
TAF
KWWR 171126Z 1712/1812 12012KT P6SM BKN004
     FM171600 15013G20KT P6SM BKN015
     FM171800 16014G22KT P6SM BKN025
     FM172100 15013G20KT P6SM BKN035
     FM172300 15012KT P6SM VCTS BKN040CB
     FM180600 16008KT P6SM BKN008=



000
FTUS44 KOUN 171126
TAFPNC
TAF
KPNC 171126Z 1712/1812 30010KT 6SM -TSRA SCT021 OVC050CB
      TEMPO 1712/1714 VRB10G20KT 2SM TSRA BR BKN021CB
     FM171500 12009KT P6SM BKN021
     FM172100 13009KT P6SM BKN035
     FM180200 12008KT P6SM VCTS OVC040CB
     FM180800 12008KT P6SM BKN008=



000
FTUS44 KOUN 171126
TAFWWR
TAF
KWWR 171126Z 1712/1812 12012KT P6SM BKN004
     FM171600 15013G20KT P6SM BKN015
     FM171800 16014G22KT P6SM BKN025
     FM172100 15013G20KT P6SM BKN035
     FM172300 15012KT P6SM VCTS BKN040CB
     FM180600 16008KT P6SM BKN008=



000
FTUS44 KOUN 171126
TAFHBR
TAF
KHBR 171126Z 1712/1812 08010KT 6SM -TSRA SCT005 OVC040CB
      TEMPO 1712/1714 3SM TSRA BKN005CB
     FM171400 12010KT P6SM BKN005
     FM171600 15010KT P6SM BKN015
     FM172000 16012KT P6SM BKN035
     FM172300 16010KT P6SM VCTS BKN040CB
     FM180600 15008KT P6SM BKN008=



000
FTUS44 KOUN 171126
TAFLAW
TAF
KLAW 171126Z 1712/1812 08006KT 5SM BR VCTS BKN007CB
      TEMPO 1712/1713 28010G20KT
     FM171400 12008KT P6SM BKN006
     FM171600 14008KT P6SM BKN015
     FM172000 16010KT P6SM BKN035
     FM180000 16008KT P6SM VCTS BKN040CB
     FM180600 15008KT P6SM BKN008=



000
FTUS44 KOUN 171126
TAFOUN
TAF
KOUN 171126Z 1712/1812 33008KT P6SM VCTS BKN022CB
     FM171400 11008KT P6SM BKN025
     FM171900 14010KT P6SM BKN040
     FM180200 14010KT P6SM VCTS OVC040CB
     FM180800 15008KT P6SM BKN008=



000
FTUS44 KOUN 171126
TAFHBR
TAF
KHBR 171126Z 1712/1812 08010KT 6SM -TSRA SCT005 OVC040CB
      TEMPO 1712/1714 3SM TSRA BKN005CB
     FM171400 12010KT P6SM BKN005
     FM171600 15010KT P6SM BKN015
     FM172000 16012KT P6SM BKN035
     FM172300 16010KT P6SM VCTS BKN040CB
     FM180600 15008KT P6SM BKN008=



000
FTUS44 KOUN 171126
TAFSPS
TAF
KSPS 171126Z 1712/1812 17011KT P6SM BKN012
     FM171600 17011KT P6SM BKN025
     FM171800 17011KT P6SM BKN035
     FM180000 16008KT P6SM VCTS BKN040CB
     FM180600 15008KT P6SM BKN008=



000
FTUS44 KOUN 171126
TAFOKC
TAF
KOKC 171126Z 1712/1812 33008KT P6SM VCTS SCT022 OVC050CB
      TEMPO 1712/1714 6SM -TSRA SCT016 BKN022CB
     FM171400 11008KT P6SM BKN025
     FM171900 14010KT P6SM BKN040
     FM180200 14010KT P6SM VCTS OVC040CB
     FM180800 15008KT P6SM BKN008=



000
FTUS44 KOUN 171126
TAFWWR
TAF
KWWR 171126Z 1712/1812 12012KT P6SM BKN004
     FM171600 15013G20KT P6SM BKN015
     FM171800 16014G22KT P6SM BKN025
     FM172100 15013G20KT P6SM BKN035
     FM172300 15012KT P6SM VCTS BKN040CB
     FM180600 16008KT P6SM BKN008=



000
FTUS44 KOUN 171126
TAFOUN
TAF
KOUN 171126Z 1712/1812 33008KT P6SM VCTS BKN022CB
     FM171400 11008KT P6SM BKN025
     FM171900 14010KT P6SM BKN040
     FM180200 14010KT P6SM VCTS OVC040CB
     FM180800 15008KT P6SM BKN008=



000
FTUS44 KOUN 171126
TAFPNC
TAF
KPNC 171126Z 1712/1812 30010KT 6SM -TSRA SCT021 OVC050CB
      TEMPO 1712/1714 VRB10G20KT 2SM TSRA BR BKN021CB
     FM171500 12009KT P6SM BKN021
     FM172100 13009KT P6SM BKN035
     FM180200 12008KT P6SM VCTS OVC040CB
     FM180800 12008KT P6SM BKN008=



000
FTUS44 KOUN 171126
TAFGAG
TAF
KGAG 171126Z 1712/1812 12012KT P6SM BKN008
     FM171600 15013G20KT P6SM BKN015
     FM171800 16014G22KT P6SM BKN025
     FM172100 15013G20KT P6SM BKN035
     FM172300 15012KT P6SM VCTS BKN040CB
     FM180600 16008KT P6SM BKN008=



000
FTUS44 KOUN 171126
TAFLAW
TAF
KLAW 171126Z 1712/1812 08006KT 5SM BR VCTS BKN007CB
      TEMPO 1712/1713 28010G20KT
     FM171400 12008KT P6SM BKN006
     FM171600 14008KT P6SM BKN015
     FM172000 16010KT P6SM BKN035
     FM180000 16008KT P6SM VCTS BKN040CB
     FM180600 15008KT P6SM BKN008=



000
FTUS44 KOUN 171126
TAFOKC
TAF
KOKC 171126Z 1712/1812 33008KT P6SM VCTS SCT022 OVC050CB
      TEMPO 1712/1714 6SM -TSRA SCT016 BKN022CB
     FM171400 11008KT P6SM BKN025
     FM171900 14010KT P6SM BKN040
     FM180200 14010KT P6SM VCTS OVC040CB
     FM180800 15008KT P6SM BKN008=



000
FTUS44 KOUN 171126
TAFSPS
TAF
KSPS 171126Z 1712/1812 17011KT P6SM BKN012
     FM171600 17011KT P6SM BKN025
     FM171800 17011KT P6SM BKN035
     FM180000 16008KT P6SM VCTS BKN040CB
     FM180600 15008KT P6SM BKN008=



000
FTUS44 KOUN 171126
TAFGAG
TAF
KGAG 171126Z 1712/1812 12012KT P6SM BKN008
     FM171600 15013G20KT P6SM BKN015
     FM171800 16014G22KT P6SM BKN025
     FM172100 15013G20KT P6SM BKN035
     FM172300 15012KT P6SM VCTS BKN040CB
     FM180600 16008KT P6SM BKN008=



000
FTUS44 KOUN 171126
TAFWWR
TAF
KWWR 171126Z 1712/1812 12012KT P6SM BKN004
     FM171600 15013G20KT P6SM BKN015
     FM171800 16014G22KT P6SM BKN025
     FM172100 15013G20KT P6SM BKN035
     FM172300 15012KT P6SM VCTS BKN040CB
     FM180600 16008KT P6SM BKN008=



000
FTUS44 KOUN 171126
TAFHBR
TAF
KHBR 171126Z 1712/1812 08010KT 6SM -TSRA SCT005 OVC040CB
      TEMPO 1712/1714 3SM TSRA BKN005CB
     FM171400 12010KT P6SM BKN005
     FM171600 15010KT P6SM BKN015
     FM172000 16012KT P6SM BKN035
     FM172300 16010KT P6SM VCTS BKN040CB
     FM180600 15008KT P6SM BKN008=



000
FTUS44 KOUN 171126
TAFOKC
TAF
KOKC 171126Z 1712/1812 33008KT P6SM VCTS SCT022 OVC050CB
      TEMPO 1712/1714 6SM -TSRA SCT016 BKN022CB
     FM171400 11008KT P6SM BKN025
     FM171900 14010KT P6SM BKN040
     FM180200 14010KT P6SM VCTS OVC040CB
     FM180800 15008KT P6SM BKN008=



000
FTUS44 KOUN 171126
TAFOUN
TAF
KOUN 171126Z 1712/1812 33008KT P6SM VCTS BKN022CB
     FM171400 11008KT P6SM BKN025
     FM171900 14010KT P6SM BKN040
     FM180200 14010KT P6SM VCTS OVC040CB
     FM180800 15008KT P6SM BKN008=



000
FTUS44 KOUN 171126
TAFPNC
TAF
KPNC 171126Z 1712/1812 30010KT 6SM -TSRA SCT021 OVC050CB
      TEMPO 1712/1714 VRB10G20KT 2SM TSRA BR BKN021CB
     FM171500 12009KT P6SM BKN021
     FM172100 13009KT P6SM BKN035
     FM180200 12008KT P6SM VCTS OVC040CB
     FM180800 12008KT P6SM BKN008=



000
FTUS44 KOUN 171028 AAB
TAFPNC
TAF AMD
KPNC 171028Z 1710/1806 02009KT 5SM -TSRA SCT021 OVC050CB
      TEMPO 1711/1713 VRB10G20KT 2SM TSRA BKN015CB
     FM171500 12009KT 6SM -TSRA OVC025CB
     FM172100 13012G18KT P6SM BKN030
     FM180300 09008KT 6SM TSRA OVC025CB=



000
FTUS44 KOUN 171028 AAB
TAFPNC
TAF AMD
KPNC 171028Z 1710/1806 02009KT 5SM -TSRA SCT021 OVC050CB
      TEMPO 1711/1713 VRB10G20KT 2SM TSRA BKN015CB
     FM171500 12009KT 6SM -TSRA OVC025CB
     FM172100 13012G18KT P6SM BKN030
     FM180300 09008KT 6SM TSRA OVC025CB=



000
FTUS44 KOUN 171028 AAB
TAFPNC
TAF AMD
KPNC 171028Z 1710/1806 02009KT 5SM -TSRA SCT021 OVC050CB
      TEMPO 1711/1713 VRB10G20KT 2SM TSRA BKN015CB
     FM171500 12009KT 6SM -TSRA OVC025CB
     FM172100 13012G18KT P6SM BKN030
     FM180300 09008KT 6SM TSRA OVC025CB=



000
FTUS44 KOUN 170945 AAC
TAFWWR
TAF AMD
KWWR 170945Z 1710/1806 12012KT P6SM -TSRA BKN006CB
     FM171100 12010KT P6SM OVC006
     FM171500 16015G22KT P6SM BKN025 PROB30 1721/1803 5SM TSRA
      BKN025CB
     FM180300 15010KT P6SM BKN025=



000
FTUS44 KOUN 170945 AAC
TAFWWR
TAF AMD
KWWR 170945Z 1710/1806 12012KT P6SM -TSRA BKN006CB
     FM171100 12010KT P6SM OVC006
     FM171500 16015G22KT P6SM BKN025 PROB30 1721/1803 5SM TSRA
      BKN025CB
     FM180300 15010KT P6SM BKN025=



000
FTUS44 KOUN 170925 AAA
TAFSPS
TAF AMD
KSPS 170925Z 1709/1806 13009KT P6SM OVC008
     FM171500 14011KT P6SM BKN015
     FM171800 14013G20KT P6SM BKN025
     FM172100 12010G16KT 6SM -TSRA OVC025CB=



000
FTUS44 KOUN 170925 AAA
TAFSPS
TAF AMD
KSPS 170925Z 1709/1806 13009KT P6SM OVC008
     FM171500 14011KT P6SM BKN015
     FM171800 14013G20KT P6SM BKN025
     FM172100 12010G16KT 6SM -TSRA OVC025CB=



000
FTUS44 KOUN 170924 AAA
TAFLAW
TAF AMD
KLAW 170924Z 1709/1806 06006KT 4SM BR OVC007
     FM171200 12012G18KT 6SM -TSRA OVC025CB=



000
FTUS44 KOUN 170924 AAA
TAFLAW
TAF AMD
KLAW 170924Z 1709/1806 06006KT 4SM BR OVC007
     FM171200 12012G18KT 6SM -TSRA OVC025CB=



000
FTUS44 KOUN 170924 AAA
TAFLAW
TAF AMD
KLAW 170924Z 1709/1806 06006KT 4SM BR OVC007
     FM171200 12012G18KT 6SM -TSRA OVC025CB=



000
FTUS44 KOUN 170924 AAA
TAFLAW
TAF AMD
KLAW 170924Z 1709/1806 06006KT 4SM BR OVC007
     FM171200 12012G18KT 6SM -TSRA OVC025CB=



000
FTUS44 KOUN 170922 AAA
TAFHBR
TAF AMD
KHBR 170922Z 1709/1806 05010KT 6SM -TSRA SCT009 OVC040CB
      TEMPO 1709/1711 VRB15G25KT 2SM TSRA BKN009CB
     FM171300 12010KT P6SM BKN009
     FM171700 15010KT P6SM BKN025
     FM172100 15010KT P6SM SCT040=



000
FTUS44 KOUN 170922 AAA
TAFHBR
TAF AMD
KHBR 170922Z 1709/1806 05010KT 6SM -TSRA SCT009 OVC040CB
      TEMPO 1709/1711 VRB15G25KT 2SM TSRA BKN009CB
     FM171300 12010KT P6SM BKN009
     FM171700 15010KT P6SM BKN025
     FM172100 15010KT P6SM SCT040=



000
FTUS44 KOUN 170917 AAA
TAFPNC
TAF AMD
KPNC 170917Z 1709/1806 02009KT P6SM VCSH FEW021 OVC060
     FM171300 07006KT P6SM VCSH BKN021
     FM171500 12009KT 6SM -TSRA OVC025CB
     FM172100 13012G18KT P6SM BKN030
     FM180300 09008KT 6SM TSRA OVC025CB=



000
FTUS44 KOUN 170917 AAA
TAFPNC
TAF AMD
KPNC 170917Z 1709/1806 02009KT P6SM VCSH FEW021 OVC060
     FM171300 07006KT P6SM VCSH BKN021
     FM171500 12009KT 6SM -TSRA OVC025CB
     FM172100 13012G18KT P6SM BKN030
     FM180300 09008KT 6SM TSRA OVC025CB=



000
FTUS44 KOUN 170917 AAA
TAFPNC
TAF AMD
KPNC 170917Z 1709/1806 02009KT P6SM VCSH FEW021 OVC060
     FM171300 07006KT P6SM VCSH BKN021
     FM171500 12009KT 6SM -TSRA OVC025CB
     FM172100 13012G18KT P6SM BKN030
     FM180300 09008KT 6SM TSRA OVC025CB=



000
FTUS44 KOUN 170917 AAA
TAFPNC
TAF AMD
KPNC 170917Z 1709/1806 02009KT P6SM VCSH FEW021 OVC060
     FM171300 07006KT P6SM VCSH BKN021
     FM171500 12009KT 6SM -TSRA OVC025CB
     FM172100 13012G18KT P6SM BKN030
     FM180300 09008KT 6SM TSRA OVC025CB=



000
FTUS44 KOUN 170914 AAB
TAFWWR
TAF AMD
KWWR 170914Z 1709/1806 12012KT P6SM -TSRA SCT008 OVC070CB
     FM171100 12010KT P6SM OVC008
     FM171500 16015G22KT P6SM BKN025 PROB30 1721/1803 5SM TSRA
      BKN025CB
     FM180300 15010KT P6SM BKN025=



000
FTUS44 KOUN 170914 AAB
TAFWWR
TAF AMD
KWWR 170914Z 1709/1806 12012KT P6SM -TSRA SCT008 OVC070CB
     FM171100 12010KT P6SM OVC008
     FM171500 16015G22KT P6SM BKN025 PROB30 1721/1803 5SM TSRA
      BKN025CB
     FM180300 15010KT P6SM BKN025=



000
FTUS44 KOUN 170912 AAB
TAFGAG
TAF AMD
KGAG 170912Z 1709/1806 12012KT P6SM -TSRA SCT008 OVC070CB
     FM171100 12012KT P6SM BKN008
     FM171500 16015G22KT P6SM BKN025 PROB30 1721/1803 5SM TSRA
      BKN025CB
     FM180300 15010KT P6SM BKN025=



000
FTUS44 KOUN 170910 AAB
TAFOUN
TAF AMD
KOUN 170910Z 1709/1806 05004KT 5SM BR OVC015
     FM171500 10008KT 6SM -TSRA OVC025CB
     FM171900 14010KT 6SM -TSRA BKN040CB
     FM172100 14010KT P6SM BKN040
     FM180000 14010KT 6SM TSRA OVC040CB=



000
FTUS44 KOUN 170909 AAA
TAFOKC
TAF AMD
KOKC 170909Z 1709/1806 04007KT P6SM BKN021
     FM171100 06006KT P6SM OVC015
     FM171500 11009KT 6SM -TSRA OVC025CB
     FM171900 14010KT 6SM -TSRA BKN040CB
     FM172100 14010KT P6SM BKN040
     FM180000 14010KT 6SM TSRA OVC040CB=



000
FTUS44 KOUN 170909 AAA
TAFOKC
TAF AMD
KOKC 170909Z 1709/1806 04007KT P6SM BKN021
     FM171100 06006KT P6SM OVC015
     FM171500 11009KT 6SM -TSRA OVC025CB
     FM171900 14010KT 6SM -TSRA BKN040CB
     FM172100 14010KT P6SM BKN040
     FM180000 14010KT 6SM TSRA OVC040CB=



000
FTUS44 KOUN 170630 AAA
TAFGAG
TAF AMD
KGAG 170630Z 1707/1806 VRB20G30KT 6SM -TSRA BKN050CB
     FM170800 09012KT P6SM BKN008
     FM171500 16015G22KT P6SM BKN025 PROB30 1721/1803 5SM TSRA
      BKN025CB
     FM180300 15010KT P6SM BKN025=



000
FTUS44 KOUN 170630 AAA
TAFGAG
TAF AMD
KGAG 170630Z 1707/1806 VRB20G30KT 6SM -TSRA BKN050CB
     FM170800 09012KT P6SM BKN008
     FM171500 16015G22KT P6SM BKN025 PROB30 1721/1803 5SM TSRA
      BKN025CB
     FM180300 15010KT P6SM BKN025=



000
FTUS44 KOUN 170630 AAA
TAFWWR
TAF AMD
KWWR 170630Z 1707/1806 VRB20G30KT 6SM -TSRA BKN050CB
     FM170800 09012KT P6SM BKN008
     FM171200 12010KT P6SM OVC012
     FM171500 16015G22KT P6SM BKN025 PROB30 1721/1803 5SM TSRA
      BKN025CB
     FM180300 15010KT P6SM BKN025=



000
FTUS44 KOUN 170630 AAA
TAFWWR
TAF AMD
KWWR 170630Z 1707/1806 VRB20G30KT 6SM -TSRA BKN050CB
     FM170800 09012KT P6SM BKN008
     FM171200 12010KT P6SM OVC012
     FM171500 16015G22KT P6SM BKN025 PROB30 1721/1803 5SM TSRA
      BKN025CB
     FM180300 15010KT P6SM BKN025=



000
FTUS44 KOUN 170630 AAA
TAFGAG
TAF AMD
KGAG 170630Z 1707/1806 VRB20G30KT 6SM -TSRA BKN050CB
     FM170800 09012KT P6SM BKN008
     FM171500 16015G22KT P6SM BKN025 PROB30 1721/1803 5SM TSRA
      BKN025CB
     FM180300 15010KT P6SM BKN025=



000
FTUS44 KOUN 170630 AAA
TAFGAG
TAF AMD
KGAG 170630Z 1707/1806 VRB20G30KT 6SM -TSRA BKN050CB
     FM170800 09012KT P6SM BKN008
     FM171500 16015G22KT P6SM BKN025 PROB30 1721/1803 5SM TSRA
      BKN025CB
     FM180300 15010KT P6SM BKN025=



000
FTUS44 KOUN 170630 AAA
TAFWWR
TAF AMD
KWWR 170630Z 1707/1806 VRB20G30KT 6SM -TSRA BKN050CB
     FM170800 09012KT P6SM BKN008
     FM171200 12010KT P6SM OVC012
     FM171500 16015G22KT P6SM BKN025 PROB30 1721/1803 5SM TSRA
      BKN025CB
     FM180300 15010KT P6SM BKN025=



000
FTUS44 KOUN 170630 AAA
TAFWWR
TAF AMD
KWWR 170630Z 1707/1806 VRB20G30KT 6SM -TSRA BKN050CB
     FM170800 09012KT P6SM BKN008
     FM171200 12010KT P6SM OVC012
     FM171500 16015G22KT P6SM BKN025 PROB30 1721/1803 5SM TSRA
      BKN025CB
     FM180300 15010KT P6SM BKN025=



000
FTUS44 KOUN 170520
TAFHBR
TAF
KHBR 170520Z 1706/1806 06012KT P6SM OVC100
      TEMPO 1706/1709 4SM BR OVC015
     FM170900 15012G16KT 6SM -TSRA BKN025CB OVC040=



000
FTUS44 KOUN 170520
TAFLAW
TAF
KLAW 170520Z 1706/1806 12010KT P6SM BKN200
     FM171000 15009KT P6SM OVC015
     FM171200 12012G18KT 6SM -TSRA OVC025CB=



000
FTUS44 KOUN 170520
TAFPNC
TAF
KPNC 170520Z 1706/1806 28010G16KT 6SM TSRA SCT030 OVC050CB
     FM170800 11006KT 3SM BR OVC020
     FM171500 12009KT 6SM -TSRA OVC025CB
     FM172100 13012G18KT P6SM BKN030
     FM180300 09008KT 6SM TSRA OVC025CB=



000
FTUS44 KOUN 170520
TAFPNC
TAF
KPNC 170520Z 1706/1806 28010G16KT 6SM TSRA SCT030 OVC050CB
     FM170800 11006KT 3SM BR OVC020
     FM171500 12009KT 6SM -TSRA OVC025CB
     FM172100 13012G18KT P6SM BKN030
     FM180300 09008KT 6SM TSRA OVC025CB=



000
FTUS44 KOUN 170520
TAFWWR
TAF
KWWR 170520Z 1706/1806 13011KT 6SM -TSRA SCT015 BKN050CB
     FM171200 12010KT P6SM OVC012
     FM171500 16015G22KT P6SM BKN025 PROB30 1721/1803 5SM TSRA
      BKN025CB
     FM180300 15010KT P6SM BKN025=



000
FTUS44 KOUN 170520
TAFGAG
TAF
KGAG 170520Z 1706/1806 13011KT 6SM -TSRA SCT015 BKN050CB
     FM171200 12010KT P6SM OVC012
     FM171500 16015G22KT P6SM BKN025 PROB30 1721/1803 5SM TSRA
      BKN025CB
     FM180300 15010KT P6SM BKN025=



000
FTUS44 KOUN 170520
TAFPNC
TAF
KPNC 170520Z 1706/1806 28010G16KT 6SM TSRA SCT030 OVC050CB
     FM170800 11006KT 3SM BR OVC020
     FM171500 12009KT 6SM -TSRA OVC025CB
     FM172100 13012G18KT P6SM BKN030
     FM180300 09008KT 6SM TSRA OVC025CB=



000
FTUS44 KOUN 170520
TAFLAW
TAF
KLAW 170520Z 1706/1806 12010KT P6SM BKN200
     FM171000 15009KT P6SM OVC015
     FM171200 12012G18KT 6SM -TSRA OVC025CB=



000
FTUS44 KOUN 170520
TAFOKC
TAF
KOKC 170520Z 1706/1806 13010KT P6SM SCT040 OVC200
     FM171100 11007KT 5SM BR OVC015
     FM171500 18009KT 6SM -TSRA OVC025CB
     FM171900 14010KT 6SM -TSRA BKN040CB
     FM172100 14010KT P6SM BKN040
     FM180000 14010KT 6SM TSRA OVC040CB=



000
FTUS44 KOUN 170520
TAFWWR
TAF
KWWR 170520Z 1706/1806 13011KT 6SM -TSRA SCT015 BKN050CB
     FM171200 12010KT P6SM OVC012
     FM171500 16015G22KT P6SM BKN025 PROB30 1721/1803 5SM TSRA
      BKN025CB
     FM180300 15010KT P6SM BKN025=



000
FTUS44 KOUN 170520
TAFHBR
TAF
KHBR 170520Z 1706/1806 06012KT P6SM OVC100
      TEMPO 1706/1709 4SM BR OVC015
     FM170900 15012G16KT 6SM -TSRA BKN025CB OVC040=



000
FTUS44 KOUN 170520
TAFOKC
TAF
KOKC 170520Z 1706/1806 13010KT P6SM SCT040 OVC200
     FM171100 11007KT 5SM BR OVC015
     FM171500 18009KT 6SM -TSRA OVC025CB
     FM171900 14010KT 6SM -TSRA BKN040CB
     FM172100 14010KT P6SM BKN040
     FM180000 14010KT 6SM TSRA OVC040CB=



000
FTUS44 KOUN 170520
TAFOKC
TAF
KOKC 170520Z 1706/1806 13010KT P6SM SCT040 OVC200
     FM171100 11007KT 5SM BR OVC015
     FM171500 18009KT 6SM -TSRA OVC025CB
     FM171900 14010KT 6SM -TSRA BKN040CB
     FM172100 14010KT P6SM BKN040
     FM180000 14010KT 6SM TSRA OVC040CB=



000
FTUS44 KOUN 170520
TAFOUN
TAF
KOUN 170520Z 1706/1806 13010KT P6SM SCT040 OVC200
     FM171100 11007KT 5SM BR OVC015
     FM171500 18009KT 6SM -TSRA OVC025CB
     FM171900 14010KT 6SM -TSRA BKN040CB
     FM172100 14010KT P6SM BKN040
     FM180000 14010KT 6SM TSRA OVC040CB=



000
FTUS44 KOUN 170520
TAFHBR
TAF
KHBR 170520Z 1706/1806 06012KT P6SM OVC100
      TEMPO 1706/1709 4SM BR OVC015
     FM170900 15012G16KT 6SM -TSRA BKN025CB OVC040=



000
FTUS44 KOUN 170520
TAFWWR
TAF
KWWR 170520Z 1706/1806 13011KT 6SM -TSRA SCT015 BKN050CB
     FM171200 12010KT P6SM OVC012
     FM171500 16015G22KT P6SM BKN025 PROB30 1721/1803 5SM TSRA
      BKN025CB
     FM180300 15010KT P6SM BKN025=



000
FTUS44 KOUN 170520
TAFGAG
TAF
KGAG 170520Z 1706/1806 13011KT 6SM -TSRA SCT015 BKN050CB
     FM171200 12010KT P6SM OVC012
     FM171500 16015G22KT P6SM BKN025 PROB30 1721/1803 5SM TSRA
      BKN025CB
     FM180300 15010KT P6SM BKN025=



000
FTUS44 KOUN 170520
TAFOUN
TAF
KOUN 170520Z 1706/1806 13010KT P6SM SCT040 OVC200
     FM171100 11007KT 5SM BR OVC015
     FM171500 18009KT 6SM -TSRA OVC025CB
     FM171900 14010KT 6SM -TSRA BKN040CB
     FM172100 14010KT P6SM BKN040
     FM180000 14010KT 6SM TSRA OVC040CB=



000
FTUS44 KOUN 170520
TAFGAG
TAF
KGAG 170520Z 1706/1806 13011KT 6SM -TSRA SCT015 BKN050CB
     FM171200 12010KT P6SM OVC012
     FM171500 16015G22KT P6SM BKN025 PROB30 1721/1803 5SM TSRA
      BKN025CB
     FM180300 15010KT P6SM BKN025=



000
FTUS44 KOUN 170520
TAFGAG
TAF
KGAG 170520Z 1706/1806 13011KT 6SM -TSRA SCT015 BKN050CB
     FM171200 12010KT P6SM OVC012
     FM171500 16015G22KT P6SM BKN025 PROB30 1721/1803 5SM TSRA
      BKN025CB
     FM180300 15010KT P6SM BKN025=



000
FTUS44 KOUN 170520
TAFPNC
TAF
KPNC 170520Z 1706/1806 28010G16KT 6SM TSRA SCT030 OVC050CB
     FM170800 11006KT 3SM BR OVC020
     FM171500 12009KT 6SM -TSRA OVC025CB
     FM172100 13012G18KT P6SM BKN030
     FM180300 09008KT 6SM TSRA OVC025CB=



000
FTUS44 KOUN 170520
TAFWWR
TAF
KWWR 170520Z 1706/1806 13011KT 6SM -TSRA SCT015 BKN050CB
     FM171200 12010KT P6SM OVC012
     FM171500 16015G22KT P6SM BKN025 PROB30 1721/1803 5SM TSRA
      BKN025CB
     FM180300 15010KT P6SM BKN025=



000
FTUS44 KOUN 170520
TAFOUN
TAF
KOUN 170520Z 1706/1806 13010KT P6SM SCT040 OVC200
     FM171100 11007KT 5SM BR OVC015
     FM171500 18009KT 6SM -TSRA OVC025CB
     FM171900 14010KT 6SM -TSRA BKN040CB
     FM172100 14010KT P6SM BKN040
     FM180000 14010KT 6SM TSRA OVC040CB=



000
FTUS44 KOUN 170520
TAFSPS
TAF
KSPS 170520Z 1706/1806 10010KT P6SM BKN060
     FM170900 13009KT P6SM OVC015
     FM171800 14013G20KT P6SM BKN025
     FM172100 12010G16KT 6SM -TSRA OVC025CB=



000
FTUS44 KOUN 170520
TAFLAW
TAF
KLAW 170520Z 1706/1806 12010KT P6SM BKN200
     FM171000 15009KT P6SM OVC015
     FM171200 12012G18KT 6SM -TSRA OVC025CB=



000
FTUS44 KOUN 170520
TAFOUN
TAF
KOUN 170520Z 1706/1806 13010KT P6SM SCT040 OVC200
     FM171100 11007KT 5SM BR OVC015
     FM171500 18009KT 6SM -TSRA OVC025CB
     FM171900 14010KT 6SM -TSRA BKN040CB
     FM172100 14010KT P6SM BKN040
     FM180000 14010KT 6SM TSRA OVC040CB=



000
FTUS44 KOUN 170520
TAFSPS
TAF
KSPS 170520Z 1706/1806 10010KT P6SM BKN060
     FM170900 13009KT P6SM OVC015
     FM171800 14013G20KT P6SM BKN025
     FM172100 12010G16KT 6SM -TSRA OVC025CB=



000
FTUS44 KOUN 170520
TAFSPS
TAF
KSPS 170520Z 1706/1806 10010KT P6SM BKN060
     FM170900 13009KT P6SM OVC015
     FM171800 14013G20KT P6SM BKN025
     FM172100 12010G16KT 6SM -TSRA OVC025CB=



000
FTUS44 KOUN 170520
TAFOKC
TAF
KOKC 170520Z 1706/1806 13010KT P6SM SCT040 OVC200
     FM171100 11007KT 5SM BR OVC015
     FM171500 18009KT 6SM -TSRA OVC025CB
     FM171900 14010KT 6SM -TSRA BKN040CB
     FM172100 14010KT P6SM BKN040
     FM180000 14010KT 6SM TSRA OVC040CB=



000
FTUS44 KOUN 170520
TAFHBR
TAF
KHBR 170520Z 1706/1806 06012KT P6SM OVC100
      TEMPO 1706/1709 4SM BR OVC015
     FM170900 15012G16KT 6SM -TSRA BKN025CB OVC040=



000
FTUS44 KOUN 170520
TAFLAW
TAF
KLAW 170520Z 1706/1806 12010KT P6SM BKN200
     FM171000 15009KT P6SM OVC015
     FM171200 12012G18KT 6SM -TSRA OVC025CB=



000
FTUS44 KOUN 170520
TAFSPS
TAF
KSPS 170520Z 1706/1806 10010KT P6SM BKN060
     FM170900 13009KT P6SM OVC015
     FM171800 14013G20KT P6SM BKN025
     FM172100 12010G16KT 6SM -TSRA OVC025CB=



000
FTUS44 KOUN 162320
TAFGAG
TAF
KGAG 162320Z 1700/1724 VRB06KT P6SM VCTS SCT030CB OVC100
      TEMPO 1700/1704 VRB15G25KT 5SM TSRA OVC020CB
     FM170400 16013KT P6SM SCT050 BKN200
     FM170500 16011KT 6SM BR OVC015
     FM171500 16015G22KT P6SM BKN025 PROB30 1721/1724 5SM TSRA
      BKN025CB=



000
FTUS44 KOUN 162320
TAFLAW
TAF
KLAW 162320Z 1700/1724 14015G20KT P6SM FEW030 BKN200
     FM170100 14011KT P6SM BKN050
     FM170700 15009KT P6SM OVC015
     FM171800 14010G16KT P6SM BKN025 PROB30 1718/1722 6SM -TSRA
      OVC025CB=



000
FTUS44 KOUN 162320
TAFOUN
TAF
KOUN 162320Z 1700/1724 14011G15KT P6SM SCT030 BKN250
     FM170200 14010KT P6SM SCT030 OVC200
     FM170800 15007KT 5SM BR OVC015
     FM171500 18009KT 6SM BR OVC025
     FM171900 14010KT P6SM BKN040=



000
FTUS44 KOUN 162320
TAFLAW
TAF
KLAW 162320Z 1700/1724 14015G20KT P6SM FEW030 BKN200
     FM170100 14011KT P6SM BKN050
     FM170700 15009KT P6SM OVC015
     FM171800 14010G16KT P6SM BKN025 PROB30 1718/1722 6SM -TSRA
      OVC025CB=



000
FTUS44 KOUN 162320
TAFOUN
TAF
KOUN 162320Z 1700/1724 14011G15KT P6SM SCT030 BKN250
     FM170200 14010KT P6SM SCT030 OVC200
     FM170800 15007KT 5SM BR OVC015
     FM171500 18009KT 6SM BR OVC025
     FM171900 14010KT P6SM BKN040=



000
FTUS44 KOUN 162320
TAFGAG
TAF
KGAG 162320Z 1700/1724 VRB06KT P6SM VCTS SCT030CB OVC100
      TEMPO 1700/1704 VRB15G25KT 5SM TSRA OVC020CB
     FM170400 16013KT P6SM SCT050 BKN200
     FM170500 16011KT 6SM BR OVC015
     FM171500 16015G22KT P6SM BKN025 PROB30 1721/1724 5SM TSRA
      BKN025CB=



000
FTUS44 KOUN 162320
TAFSPS
TAF
KSPS 162320Z 1700/1724 14018G26KT P6SM BKN200
     FM170100 14012KT P6SM BKN060
     FM170700 15009KT P6SM OVC015
     FM171800 14013G20KT P6SM BKN025 PROB30 1718/1722 6SM -TSRA
      OVC025CB=



000
FTUS44 KOUN 162320
TAFHBR
TAF
KHBR 162320Z 1700/1724 14018G25KT P6SM SCT030 BKN070
     FM170100 14012KT P6SM SCT030 BKN070
      TEMPO 1701/1705 4SM -TSRA OVC030CB
     FM170500 15009KT 5SM BR OVC015
      TEMPO 1708/1712 3SM BR OVC010
     FM171500 15012G18KT P6SM BKN025 PROB30 1720/1724 5SM TSRA
      BKN025CB=



000
FTUS44 KOUN 162320
TAFLAW
TAF
KLAW 162320Z 1700/1724 14015G20KT P6SM FEW030 BKN200
     FM170100 14011KT P6SM BKN050
     FM170700 15009KT P6SM OVC015
     FM171800 14010G16KT P6SM BKN025 PROB30 1718/1722 6SM -TSRA
      OVC025CB=



000
FTUS44 KOUN 162320
TAFWWR
TAF
KWWR 162320Z 1700/1724 VRB06KT P6SM VCTS SCT030CB OVC100
      TEMPO 1700/1704 VRB15G25KT 5SM TSRA OVC020CB
     FM170400 16013KT P6SM SCT050 BKN200
     FM170500 16011KT 6SM BR OVC015
     FM171500 16015G22KT P6SM BKN025 PROB30 1721/1724 5SM TSRA
      BKN025CB=



000
FTUS44 KOUN 162320
TAFGAG
TAF
KGAG 162320Z 1700/1724 VRB06KT P6SM VCTS SCT030CB OVC100
      TEMPO 1700/1704 VRB15G25KT 5SM TSRA OVC020CB
     FM170400 16013KT P6SM SCT050 BKN200
     FM170500 16011KT 6SM BR OVC015
     FM171500 16015G22KT P6SM BKN025 PROB30 1721/1724 5SM TSRA
      BKN025CB=



000
FTUS44 KOUN 162320
TAFSPS
TAF
KSPS 162320Z 1700/1724 14018G26KT P6SM BKN200
     FM170100 14012KT P6SM BKN060
     FM170700 15009KT P6SM OVC015
     FM171800 14013G20KT P6SM BKN025 PROB30 1718/1722 6SM -TSRA
      OVC025CB=



000
FTUS44 KOUN 162320
TAFPNC
TAF
KPNC 162320Z 1700/1724 13013KT P6SM SCT050
      TEMPO 1708/1710 27015G25KT 6SM TSRA BKN025CB
     FM171000 11006KT 3SM BR OVC020
     FM171500 17009KT P6SM OVC025 PROB30 1721/1724 5SM TSRA
      BKN025CB=



000
FTUS44 KOUN 162320
TAFWWR
TAF
KWWR 162320Z 1700/1724 VRB06KT P6SM VCTS SCT030CB OVC100
      TEMPO 1700/1704 VRB15G25KT 5SM TSRA OVC020CB
     FM170400 16013KT P6SM SCT050 BKN200
     FM170500 16011KT 6SM BR OVC015
     FM171500 16015G22KT P6SM BKN025 PROB30 1721/1724 5SM TSRA
      BKN025CB=



000
FTUS44 KOUN 162320
TAFPNC
TAF
KPNC 162320Z 1700/1724 13013KT P6SM SCT050
      TEMPO 1708/1710 27015G25KT 6SM TSRA BKN025CB
     FM171000 11006KT 3SM BR OVC020
     FM171500 17009KT P6SM OVC025 PROB30 1721/1724 5SM TSRA
      BKN025CB=



000
FTUS44 KOUN 162320
TAFOKC
TAF
KOKC 162320Z 1700/1724 14011G15KT P6SM SCT030 BKN250
     FM170200 14010KT P6SM SCT030 OVC200
     FM170800 15007KT 5SM BR OVC015
     FM171500 18009KT 6SM BR OVC025
     FM171900 14010KT P6SM BKN040=



000
FTUS44 KOUN 162320
TAFOKC
TAF
KOKC 162320Z 1700/1724 14011G15KT P6SM SCT030 BKN250
     FM170200 14010KT P6SM SCT030 OVC200
     FM170800 15007KT 5SM BR OVC015
     FM171500 18009KT 6SM BR OVC025
     FM171900 14010KT P6SM BKN040=



000
FTUS44 KOUN 162320
TAFWWR
TAF
KWWR 162320Z 1700/1724 VRB06KT P6SM VCTS SCT030CB OVC100
      TEMPO 1700/1704 VRB15G25KT 5SM TSRA OVC020CB
     FM170400 16013KT P6SM SCT050 BKN200
     FM170500 16011KT 6SM BR OVC015
     FM171500 16015G22KT P6SM BKN025 PROB30 1721/1724 5SM TSRA
      BKN025CB=



000
FTUS44 KOUN 162320
TAFPNC
TAF
KPNC 162320Z 1700/1724 13013KT P6SM SCT050
      TEMPO 1708/1710 27015G25KT 6SM TSRA BKN025CB
     FM171000 11006KT 3SM BR OVC020
     FM171500 17009KT P6SM OVC025 PROB30 1721/1724 5SM TSRA
      BKN025CB=



000
FTUS44 KOUN 162320
TAFOKC
TAF
KOKC 162320Z 1700/1724 14011G15KT P6SM SCT030 BKN250
     FM170200 14010KT P6SM SCT030 OVC200
     FM170800 15007KT 5SM BR OVC015
     FM171500 18009KT 6SM BR OVC025
     FM171900 14010KT P6SM BKN040=



000
FTUS44 KOUN 162320
TAFSPS
TAF
KSPS 162320Z 1700/1724 14018G26KT P6SM BKN200
     FM170100 14012KT P6SM BKN060
     FM170700 15009KT P6SM OVC015
     FM171800 14013G20KT P6SM BKN025 PROB30 1718/1722 6SM -TSRA
      OVC025CB=



000
FTUS44 KOUN 162320
TAFHBR
TAF
KHBR 162320Z 1700/1724 14018G25KT P6SM SCT030 BKN070
     FM170100 14012KT P6SM SCT030 BKN070
      TEMPO 1701/1705 4SM -TSRA OVC030CB
     FM170500 15009KT 5SM BR OVC015
      TEMPO 1708/1712 3SM BR OVC010
     FM171500 15012G18KT P6SM BKN025 PROB30 1720/1724 5SM TSRA
      BKN025CB=



    US Dept of Commerce
    National Oceanic and Atmospheric Administration
    National Weather Service
    1325 East West Highway
    Silver Spring, MD 20910
    Page Author: NWS Internet Services Team
Disclaimer
Information Quality
Credits
Glossary
Privacy Policy
Freedom of Information Act (FOIA)
About Us
Career Opportunities